<?xml version="1.0" encoding="UTF-8" standalone="no" ?>
<gpx xmlns="http://www.topografix.com/GPX/1/1" xmlns:xsi="http://www.w3.org/2001/XMLSchema-instance" xsi:schemaLocation="http://www.topografix.com/GPX/1/1 http://www.topografix.com/GPX/1/1/gpx.xsd" version="1.1" creator="VisuGPX - https://www.visugpx.com">
  <metadata>
    <name> naka training</name>
    <desc><![CDATA[trace vendredi 4 décembre ]]></desc>
  </metadata>
  <trk>
    <name><![CDATA[2015-12-04 14:54:29]]></name>
    <trkseg>
      <trkpt lat="44.61247" lon="-0.95544">
        <ele>-4.36</ele>
        <time>2015-12-04T12:04:45Z</time>
      </trkpt>
      <trkpt lat="44.61247" lon="-0.95544">
        <ele>-4.39</ele>
        <time>2015-12-04T12:04:46Z</time>
      </trkpt>
      <trkpt lat="44.6123" lon="-0.95505">
        <ele>-3.95</ele>
        <time>2015-12-04T12:05:02Z</time>
      </trkpt>
      <trkpt lat="44.61194" lon="-0.95393">
        <ele>-5.07</ele>
        <time>2015-12-04T12:05:16Z</time>
      </trkpt>
      <trkpt lat="44.61179" lon="-0.95291">
        <ele>-4.78</ele>
        <time>2015-12-04T12:05:27Z</time>
      </trkpt>
      <trkpt lat="44.61184" lon="-0.95223">
        <ele>-4.6</ele>
        <time>2015-12-04T12:05:34Z</time>
      </trkpt>
      <trkpt lat="44.61173" lon="-0.95124">
        <ele>-3.59</ele>
        <time>2015-12-04T12:05:44Z</time>
      </trkpt>
      <trkpt lat="44.61161" lon="-0.9509">
        <ele>-3.52</ele>
        <time>2015-12-04T12:05:48Z</time>
      </trkpt>
      <trkpt lat="44.61132" lon="-0.95044">
        <ele>-3.32</ele>
        <time>2015-12-04T12:05:56Z</time>
      </trkpt>
      <trkpt lat="44.61102" lon="-0.94994">
        <ele>-4.21</ele>
        <time>2015-12-04T12:06:04Z</time>
      </trkpt>
      <trkpt lat="44.6107" lon="-0.95004">
        <ele>-3.95</ele>
        <time>2015-12-04T12:06:12Z</time>
      </trkpt>
      <trkpt lat="44.61065" lon="-0.95007">
        <ele>-3.81</ele>
        <time>2015-12-04T12:06:13Z</time>
      </trkpt>
      <trkpt lat="44.61057" lon="-0.95012">
        <ele>-3.4</ele>
        <time>2015-12-04T12:06:15Z</time>
      </trkpt>
      <trkpt lat="44.61038" lon="-0.95002">
        <ele>-2.82</ele>
        <time>2015-12-04T12:06:20Z</time>
      </trkpt>
      <trkpt lat="44.61019" lon="-0.94973">
        <ele>-3.01</ele>
        <time>2015-12-04T12:06:25Z</time>
      </trkpt>
      <trkpt lat="44.61009" lon="-0.94961">
        <ele>-2.9</ele>
        <time>2015-12-04T12:06:27Z</time>
      </trkpt>
      <trkpt lat="44.61" lon="-0.94948">
        <ele>-2.95</ele>
        <time>2015-12-04T12:06:29Z</time>
      </trkpt>
      <trkpt lat="44.60992" lon="-0.94938">
        <ele>-3</ele>
        <time>2015-12-04T12:06:31Z</time>
      </trkpt>
      <trkpt lat="44.60969" lon="-0.94912">
        <ele>-3.12</ele>
        <time>2015-12-04T12:06:36Z</time>
      </trkpt>
      <trkpt lat="44.60959" lon="-0.94903">
        <ele>-2.78</ele>
        <time>2015-12-04T12:06:38Z</time>
      </trkpt>
      <trkpt lat="44.60922" lon="-0.94894">
        <ele>-4.57</ele>
        <time>2015-12-04T12:06:46Z</time>
      </trkpt>
      <trkpt lat="44.6091" lon="-0.94884">
        <ele>-4.07</ele>
        <time>2015-12-04T12:06:49Z</time>
      </trkpt>
      <trkpt lat="44.60895" lon="-0.94865">
        <ele>-4.06</ele>
        <time>2015-12-04T12:06:53Z</time>
      </trkpt>
      <trkpt lat="44.6089" lon="-0.9484">
        <ele>-4.31</ele>
        <time>2015-12-04T12:06:57Z</time>
      </trkpt>
      <trkpt lat="44.60876" lon="-0.94811">
        <ele>-4.35</ele>
        <time>2015-12-04T12:07:02Z</time>
      </trkpt>
      <trkpt lat="44.60868" lon="-0.94791">
        <ele>-4.24</ele>
        <time>2015-12-04T12:07:05Z</time>
      </trkpt>
      <trkpt lat="44.60846" lon="-0.94777">
        <ele>-4</ele>
        <time>2015-12-04T12:07:12Z</time>
      </trkpt>
      <trkpt lat="44.60812" lon="-0.94802">
        <ele>-4.39</ele>
        <time>2015-12-04T12:07:25Z</time>
      </trkpt>
      <trkpt lat="44.60815" lon="-0.94804">
        <ele>-4.2</ele>
        <time>2015-12-04T12:07:34Z</time>
      </trkpt>
      <trkpt lat="44.60827" lon="-0.94796">
        <ele>-3.66</ele>
        <time>2015-12-04T12:07:38Z</time>
      </trkpt>
      <trkpt lat="44.60848" lon="-0.94779">
        <ele>-3.9</ele>
        <time>2015-12-04T12:07:43Z</time>
      </trkpt>
      <trkpt lat="44.60864" lon="-0.94793">
        <ele>-3.96</ele>
        <time>2015-12-04T12:07:48Z</time>
      </trkpt>
      <trkpt lat="44.6088" lon="-0.94824">
        <ele>-4.13</ele>
        <time>2015-12-04T12:07:53Z</time>
      </trkpt>
      <trkpt lat="44.60871" lon="-0.94869">
        <ele>-3.66</ele>
        <time>2015-12-04T12:08:01Z</time>
      </trkpt>
      <trkpt lat="44.60867" lon="-0.94872">
        <ele>-3.86</ele>
        <time>2015-12-04T12:08:02Z</time>
      </trkpt>
      <trkpt lat="44.60851" lon="-0.9489">
        <ele>-4.29</ele>
        <time>2015-12-04T12:08:06Z</time>
      </trkpt>
      <trkpt lat="44.60841" lon="-0.94905">
        <ele>-4.63</ele>
        <time>2015-12-04T12:08:09Z</time>
      </trkpt>
      <trkpt lat="44.60856" lon="-0.9495">
        <ele>-4.77</ele>
        <time>2015-12-04T12:08:17Z</time>
      </trkpt>
      <trkpt lat="44.60857" lon="-0.94958">
        <ele>-4.88</ele>
        <time>2015-12-04T12:08:18Z</time>
      </trkpt>
      <trkpt lat="44.60863" lon="-0.94986">
        <ele>-5.48</ele>
        <time>2015-12-04T12:08:23Z</time>
      </trkpt>
      <trkpt lat="44.6089" lon="-0.95033">
        <ele>-4.67</ele>
        <time>2015-12-04T12:08:35Z</time>
      </trkpt>
      <trkpt lat="44.60899" lon="-0.95044">
        <ele>-4.73</ele>
        <time>2015-12-04T12:08:38Z</time>
      </trkpt>
      <trkpt lat="44.60895" lon="-0.9506">
        <ele>-5.99</ele>
        <time>2015-12-04T12:08:46Z</time>
      </trkpt>
      <trkpt lat="44.60893" lon="-0.95075">
        <ele>-7.12</ele>
        <time>2015-12-04T12:09:03Z</time>
      </trkpt>
      <trkpt lat="44.609" lon="-0.95097">
        <ele>-7.55</ele>
        <time>2015-12-04T12:09:12Z</time>
      </trkpt>
      <trkpt lat="44.60924" lon="-0.95128">
        <ele>-7.66</ele>
        <time>2015-12-04T12:09:23Z</time>
      </trkpt>
      <trkpt lat="44.60925" lon="-0.95132">
        <ele>-7.12</ele>
        <time>2015-12-04T12:09:25Z</time>
      </trkpt>
      <trkpt lat="44.60921" lon="-0.95141">
        <ele>-6.93</ele>
        <time>2015-12-04T12:09:30Z</time>
      </trkpt>
      <trkpt lat="44.60911" lon="-0.95144">
        <ele>-6.67</ele>
        <time>2015-12-04T12:09:37Z</time>
      </trkpt>
      <trkpt lat="44.609" lon="-0.95133">
        <ele>-6.65</ele>
        <time>2015-12-04T12:09:42Z</time>
      </trkpt>
      <trkpt lat="44.6088" lon="-0.95103">
        <ele>-6.68</ele>
        <time>2015-12-04T12:09:48Z</time>
      </trkpt>
      <trkpt lat="44.60864" lon="-0.95079">
        <ele>-6.37</ele>
        <time>2015-12-04T12:09:53Z</time>
      </trkpt>
      <trkpt lat="44.60856" lon="-0.95055">
        <ele>-6.7</ele>
        <time>2015-12-04T12:09:57Z</time>
      </trkpt>
      <trkpt lat="44.6082" lon="-0.95022">
        <ele>-6.31</ele>
        <time>2015-12-04T12:10:08Z</time>
      </trkpt>
      <trkpt lat="44.60804" lon="-0.95008">
        <ele>-6.43</ele>
        <time>2015-12-04T12:10:15Z</time>
      </trkpt>
      <trkpt lat="44.60783" lon="-0.94981">
        <ele>-7.51</ele>
        <time>2015-12-04T12:10:24Z</time>
      </trkpt>
      <trkpt lat="44.6078" lon="-0.94978">
        <ele>-7.41</ele>
        <time>2015-12-04T12:10:25Z</time>
      </trkpt>
      <trkpt lat="44.60768" lon="-0.94976">
        <ele>-6.79</ele>
        <time>2015-12-04T12:10:30Z</time>
      </trkpt>
      <trkpt lat="44.60761" lon="-0.94975">
        <ele>-6.32</ele>
        <time>2015-12-04T12:10:44Z</time>
      </trkpt>
      <trkpt lat="44.6076" lon="-0.94975">
        <ele>-6.31</ele>
        <time>2015-12-04T12:10:45Z</time>
      </trkpt>
      <trkpt lat="44.60743" lon="-0.94959">
        <ele>-6.41</ele>
        <time>2015-12-04T12:10:53Z</time>
      </trkpt>
      <trkpt lat="44.60733" lon="-0.94953">
        <ele>-6.28</ele>
        <time>2015-12-04T12:10:57Z</time>
      </trkpt>
      <trkpt lat="44.6072" lon="-0.94938">
        <ele>-6.62</ele>
        <time>2015-12-04T12:11:03Z</time>
      </trkpt>
      <trkpt lat="44.60711" lon="-0.94936">
        <ele>-6.23</ele>
        <time>2015-12-04T12:11:07Z</time>
      </trkpt>
      <trkpt lat="44.60683" lon="-0.94916">
        <ele>-6.4</ele>
        <time>2015-12-04T12:11:15Z</time>
      </trkpt>
      <trkpt lat="44.60675" lon="-0.94912">
        <ele>-6.05</ele>
        <time>2015-12-04T12:11:17Z</time>
      </trkpt>
      <trkpt lat="44.60666" lon="-0.94905">
        <ele>-5.92</ele>
        <time>2015-12-04T12:11:19Z</time>
      </trkpt>
      <trkpt lat="44.60657" lon="-0.94899">
        <ele>-6.46</ele>
        <time>2015-12-04T12:11:21Z</time>
      </trkpt>
      <trkpt lat="44.60648" lon="-0.94891">
        <ele>-6.54</ele>
        <time>2015-12-04T12:11:23Z</time>
      </trkpt>
      <trkpt lat="44.60634" lon="-0.94887">
        <ele>-6.09</ele>
        <time>2015-12-04T12:11:26Z</time>
      </trkpt>
      <trkpt lat="44.60586" lon="-0.94872">
        <ele>-6.66</ele>
        <time>2015-12-04T12:11:38Z</time>
      </trkpt>
      <trkpt lat="44.60584" lon="-0.94875">
        <ele>-6.51</ele>
        <time>2015-12-04T12:11:54Z</time>
      </trkpt>
      <trkpt lat="44.60582" lon="-0.94874">
        <ele>-6.48</ele>
        <time>2015-12-04T12:11:57Z</time>
      </trkpt>
      <trkpt lat="44.60575" lon="-0.94864">
        <ele>-7.23</ele>
        <time>2015-12-04T12:12:01Z</time>
      </trkpt>
      <trkpt lat="44.60555" lon="-0.94846">
        <ele>-7.31</ele>
        <time>2015-12-04T12:12:11Z</time>
      </trkpt>
      <trkpt lat="44.60535" lon="-0.94826">
        <ele>-7.18</ele>
        <time>2015-12-04T12:12:33Z</time>
      </trkpt>
      <trkpt lat="44.60516" lon="-0.94801">
        <ele>-7.33</ele>
        <time>2015-12-04T12:12:42Z</time>
      </trkpt>
      <trkpt lat="44.60485" lon="-0.94763">
        <ele>-6.68</ele>
        <time>2015-12-04T12:12:54Z</time>
      </trkpt>
      <trkpt lat="44.60483" lon="-0.9476">
        <ele>-6.65</ele>
        <time>2015-12-04T12:13:07Z</time>
      </trkpt>
      <trkpt lat="44.60479" lon="-0.94762">
        <ele>-6.48</ele>
        <time>2015-12-04T12:13:30Z</time>
      </trkpt>
      <trkpt lat="44.6047" lon="-0.94735">
        <ele>-5.75</ele>
        <time>2015-12-04T12:13:41Z</time>
      </trkpt>
      <trkpt lat="44.60469" lon="-0.94729">
        <ele>-5.87</ele>
        <time>2015-12-04T12:13:42Z</time>
      </trkpt>
      <trkpt lat="44.60471" lon="-0.94701">
        <ele>-6.54</ele>
        <time>2015-12-04T12:13:46Z</time>
      </trkpt>
      <trkpt lat="44.60473" lon="-0.94668">
        <ele>-6.64</ele>
        <time>2015-12-04T12:13:51Z</time>
      </trkpt>
      <trkpt lat="44.60473" lon="-0.94638">
        <ele>-6.59</ele>
        <time>2015-12-04T12:13:56Z</time>
      </trkpt>
      <trkpt lat="44.6047" lon="-0.9459">
        <ele>-6.06</ele>
        <time>2015-12-04T12:14:05Z</time>
      </trkpt>
      <trkpt lat="44.60463" lon="-0.94573">
        <ele>-6.05</ele>
        <time>2015-12-04T12:14:18Z</time>
      </trkpt>
      <trkpt lat="44.60462" lon="-0.94572">
        <ele>-6.06</ele>
        <time>2015-12-04T12:14:21Z</time>
      </trkpt>
      <trkpt lat="44.6046" lon="-0.94572">
        <ele>-6.15</ele>
        <time>2015-12-04T12:14:38Z</time>
      </trkpt>
      <trkpt lat="44.6046" lon="-0.94567">
        <ele>-6.19</ele>
        <time>2015-12-04T12:14:44Z</time>
      </trkpt>
      <trkpt lat="44.60467" lon="-0.9453">
        <ele>-6.03</ele>
        <time>2015-12-04T12:14:54Z</time>
      </trkpt>
      <trkpt lat="44.60466" lon="-0.9452">
        <ele>-6.5</ele>
        <time>2015-12-04T12:14:56Z</time>
      </trkpt>
      <trkpt lat="44.60471" lon="-0.94498">
        <ele>-7.07</ele>
        <time>2015-12-04T12:15:00Z</time>
      </trkpt>
      <trkpt lat="44.60487" lon="-0.94458">
        <ele>-5.82</ele>
        <time>2015-12-04T12:15:09Z</time>
      </trkpt>
      <trkpt lat="44.60489" lon="-0.94453">
        <ele>-6.57</ele>
        <time>2015-12-04T12:15:12Z</time>
      </trkpt>
      <trkpt lat="44.6049" lon="-0.94392">
        <ele>-5.76</ele>
        <time>2015-12-04T12:15:24Z</time>
      </trkpt>
      <trkpt lat="44.60494" lon="-0.94377">
        <ele>-6.24</ele>
        <time>2015-12-04T12:15:27Z</time>
      </trkpt>
      <trkpt lat="44.60501" lon="-0.94359">
        <ele>-6.49</ele>
        <time>2015-12-04T12:15:31Z</time>
      </trkpt>
      <trkpt lat="44.60497" lon="-0.94324">
        <ele>-5.94</ele>
        <time>2015-12-04T12:15:37Z</time>
      </trkpt>
      <trkpt lat="44.60488" lon="-0.9426">
        <ele>-6.06</ele>
        <time>2015-12-04T12:15:45Z</time>
      </trkpt>
      <trkpt lat="44.6046" lon="-0.94209">
        <ele>-6.15</ele>
        <time>2015-12-04T12:15:53Z</time>
      </trkpt>
      <trkpt lat="44.60436" lon="-0.94184">
        <ele>-5.96</ele>
        <time>2015-12-04T12:15:58Z</time>
      </trkpt>
      <trkpt lat="44.60418" lon="-0.94142">
        <ele>-5.42</ele>
        <time>2015-12-04T12:16:04Z</time>
      </trkpt>
      <trkpt lat="44.60399" lon="-0.94121">
        <ele>-5.12</ele>
        <time>2015-12-04T12:16:09Z</time>
      </trkpt>
      <trkpt lat="44.6037" lon="-0.94088">
        <ele>-5.31</ele>
        <time>2015-12-04T12:16:16Z</time>
      </trkpt>
      <trkpt lat="44.60371" lon="-0.94041">
        <ele>-5.03</ele>
        <time>2015-12-04T12:16:27Z</time>
      </trkpt>
      <trkpt lat="44.60377" lon="-0.94034">
        <ele>-4.72</ele>
        <time>2015-12-04T12:16:57Z</time>
      </trkpt>
      <trkpt lat="44.60397" lon="-0.94002">
        <ele>-4.6</ele>
        <time>2015-12-04T12:17:07Z</time>
      </trkpt>
      <trkpt lat="44.60397" lon="-0.94009">
        <ele>-4.3</ele>
        <time>2015-12-04T12:17:13Z</time>
      </trkpt>
      <trkpt lat="44.60392" lon="-0.94026">
        <ele>-4.95</ele>
        <time>2015-12-04T12:17:18Z</time>
      </trkpt>
      <trkpt lat="44.60413" lon="-0.94051">
        <ele>-5.06</ele>
        <time>2015-12-04T12:17:26Z</time>
      </trkpt>
      <trkpt lat="44.60405" lon="-0.94066">
        <ele>-5.07</ele>
        <time>2015-12-04T12:17:31Z</time>
      </trkpt>
      <trkpt lat="44.604" lon="-0.94067">
        <ele>-5.07</ele>
        <time>2015-12-04T12:17:33Z</time>
      </trkpt>
      <trkpt lat="44.60397" lon="-0.94064">
        <ele>-4.69</ele>
        <time>2015-12-04T12:17:36Z</time>
      </trkpt>
      <trkpt lat="44.60394" lon="-0.94068">
        <ele>-4.52</ele>
        <time>2015-12-04T12:17:47Z</time>
      </trkpt>
      <trkpt lat="44.60391" lon="-0.94067">
        <ele>-4.53</ele>
        <time>2015-12-04T12:17:49Z</time>
      </trkpt>
      <trkpt lat="44.60395" lon="-0.94067">
        <ele>-4.68</ele>
        <time>2015-12-04T12:18:07Z</time>
      </trkpt>
      <trkpt lat="44.60395" lon="-0.94074">
        <ele>-4.68</ele>
        <time>2015-12-04T12:18:14Z</time>
      </trkpt>
      <trkpt lat="44.60417" lon="-0.94098">
        <ele>-4.91</ele>
        <time>2015-12-04T12:18:22Z</time>
      </trkpt>
      <trkpt lat="44.60417" lon="-0.94137">
        <ele>-6.3</ele>
        <time>2015-12-04T12:18:27Z</time>
      </trkpt>
      <trkpt lat="44.60423" lon="-0.94159">
        <ele>-6.33</ele>
        <time>2015-12-04T12:18:30Z</time>
      </trkpt>
      <trkpt lat="44.60437" lon="-0.94185">
        <ele>-7.48</ele>
        <time>2015-12-04T12:18:34Z</time>
      </trkpt>
      <trkpt lat="44.60453" lon="-0.94201">
        <ele>-7.09</ele>
        <time>2015-12-04T12:18:37Z</time>
      </trkpt>
      <trkpt lat="44.60464" lon="-0.94212">
        <ele>-6.62</ele>
        <time>2015-12-04T12:18:39Z</time>
      </trkpt>
      <trkpt lat="44.60507" lon="-0.94201">
        <ele>-4.11</ele>
        <time>2015-12-04T12:18:47Z</time>
      </trkpt>
      <trkpt lat="44.60535" lon="-0.94156">
        <ele>-2.29</ele>
        <time>2015-12-04T12:18:54Z</time>
      </trkpt>
      <trkpt lat="44.60531" lon="-0.94131">
        <ele>-2.02</ele>
        <time>2015-12-04T12:18:58Z</time>
      </trkpt>
      <trkpt lat="44.6051" lon="-0.9411">
        <ele>-2.53</ele>
        <time>2015-12-04T12:19:02Z</time>
      </trkpt>
      <trkpt lat="44.60494" lon="-0.94097">
        <ele>-3.42</ele>
        <time>2015-12-04T12:19:05Z</time>
      </trkpt>
      <trkpt lat="44.60422" lon="-0.94013">
        <ele>-2.03</ele>
        <time>2015-12-04T12:19:18Z</time>
      </trkpt>
      <trkpt lat="44.60323" lon="-0.93863">
        <ele>-1.58</ele>
        <time>2015-12-04T12:19:37Z</time>
      </trkpt>
      <trkpt lat="44.60267" lon="-0.93741">
        <ele>-2.18</ele>
        <time>2015-12-04T12:19:52Z</time>
      </trkpt>
      <trkpt lat="44.6024" lon="-0.93728">
        <ele>-2.29</ele>
        <time>2015-12-04T12:20:00Z</time>
      </trkpt>
      <trkpt lat="44.60201" lon="-0.93747">
        <ele>-3.09</ele>
        <time>2015-12-04T12:20:07Z</time>
      </trkpt>
      <trkpt lat="44.60152" lon="-0.93805">
        <ele>-1.78</ele>
        <time>2015-12-04T12:20:18Z</time>
      </trkpt>
      <trkpt lat="44.60094" lon="-0.93906">
        <ele>-2.37</ele>
        <time>2015-12-04T12:20:32Z</time>
      </trkpt>
      <trkpt lat="44.60096" lon="-0.93897">
        <ele>-1.92</ele>
        <time>2015-12-04T12:20:37Z</time>
      </trkpt>
      <trkpt lat="44.60109" lon="-0.93886">
        <ele>-2.02</ele>
        <time>2015-12-04T12:20:41Z</time>
      </trkpt>
      <trkpt lat="44.60111" lon="-0.93885">
        <ele>-1.56</ele>
        <time>2015-12-04T12:20:59Z</time>
      </trkpt>
      <trkpt lat="44.60113" lon="-0.93889">
        <ele>-1.42</ele>
        <time>2015-12-04T12:21:37Z</time>
      </trkpt>
      <trkpt lat="44.60114" lon="-0.93888">
        <ele>-1.4</ele>
        <time>2015-12-04T12:21:46Z</time>
      </trkpt>
      <trkpt lat="44.60123" lon="-0.9388">
        <ele>-4.92</ele>
        <time>2015-12-04T12:21:51Z</time>
      </trkpt>
      <trkpt lat="44.60143" lon="-0.93883">
        <ele>-6.79</ele>
        <time>2015-12-04T12:21:57Z</time>
      </trkpt>
      <trkpt lat="44.60165" lon="-0.939">
        <ele>-6.79</ele>
        <time>2015-12-04T12:22:02Z</time>
      </trkpt>
      <trkpt lat="44.6018" lon="-0.93912">
        <ele>-6.75</ele>
        <time>2015-12-04T12:22:05Z</time>
      </trkpt>
      <trkpt lat="44.60197" lon="-0.93931">
        <ele>-7.18</ele>
        <time>2015-12-04T12:22:09Z</time>
      </trkpt>
      <trkpt lat="44.60219" lon="-0.93953">
        <ele>-6.31</ele>
        <time>2015-12-04T12:22:14Z</time>
      </trkpt>
      <trkpt lat="44.60236" lon="-0.93978">
        <ele>-5.06</ele>
        <time>2015-12-04T12:22:19Z</time>
      </trkpt>
      <trkpt lat="44.60245" lon="-0.93995">
        <ele>-6.14</ele>
        <time>2015-12-04T12:22:23Z</time>
      </trkpt>
      <trkpt lat="44.60255" lon="-0.94011">
        <ele>-6.01</ele>
        <time>2015-12-04T12:22:27Z</time>
      </trkpt>
      <trkpt lat="44.6027" lon="-0.94039">
        <ele>-5.67</ele>
        <time>2015-12-04T12:22:33Z</time>
      </trkpt>
      <trkpt lat="44.60276" lon="-0.94056">
        <ele>-5.44</ele>
        <time>2015-12-04T12:22:37Z</time>
      </trkpt>
      <trkpt lat="44.60303" lon="-0.94093">
        <ele>-5.9</ele>
        <time>2015-12-04T12:22:46Z</time>
      </trkpt>
      <trkpt lat="44.60315" lon="-0.94118">
        <ele>-5.54</ele>
        <time>2015-12-04T12:22:51Z</time>
      </trkpt>
      <trkpt lat="44.6033" lon="-0.94146">
        <ele>-5.81</ele>
        <time>2015-12-04T12:22:56Z</time>
      </trkpt>
      <trkpt lat="44.60346" lon="-0.94171">
        <ele>-5.75</ele>
        <time>2015-12-04T12:23:01Z</time>
      </trkpt>
      <trkpt lat="44.60355" lon="-0.94192">
        <ele>-6.62</ele>
        <time>2015-12-04T12:23:05Z</time>
      </trkpt>
      <trkpt lat="44.60359" lon="-0.94214">
        <ele>-5.84</ele>
        <time>2015-12-04T12:23:09Z</time>
      </trkpt>
      <trkpt lat="44.60363" lon="-0.94224">
        <ele>-5.3</ele>
        <time>2015-12-04T12:23:11Z</time>
      </trkpt>
      <trkpt lat="44.60375" lon="-0.94246">
        <ele>-5.87</ele>
        <time>2015-12-04T12:23:15Z</time>
      </trkpt>
      <trkpt lat="44.60408" lon="-0.94283">
        <ele>-5.47</ele>
        <time>2015-12-04T12:23:24Z</time>
      </trkpt>
      <trkpt lat="44.60424" lon="-0.94302">
        <ele>-5.33</ele>
        <time>2015-12-04T12:23:30Z</time>
      </trkpt>
      <trkpt lat="44.60444" lon="-0.94348">
        <ele>-6.43</ele>
        <time>2015-12-04T12:23:41Z</time>
      </trkpt>
      <trkpt lat="44.60446" lon="-0.94376">
        <ele>-6.49</ele>
        <time>2015-12-04T12:23:49Z</time>
      </trkpt>
      <trkpt lat="44.60443" lon="-0.94377">
        <ele>-5.95</ele>
        <time>2015-12-04T12:24:01Z</time>
      </trkpt>
      <trkpt lat="44.60425" lon="-0.94381">
        <ele>-5.7</ele>
        <time>2015-12-04T12:24:09Z</time>
      </trkpt>
      <trkpt lat="44.60389" lon="-0.94381">
        <ele>-7.61</ele>
        <time>2015-12-04T12:24:19Z</time>
      </trkpt>
      <trkpt lat="44.60385" lon="-0.94383">
        <ele>-7.17</ele>
        <time>2015-12-04T12:24:26Z</time>
      </trkpt>
      <trkpt lat="44.60373" lon="-0.94386">
        <ele>-7.15</ele>
        <time>2015-12-04T12:24:44Z</time>
      </trkpt>
      <trkpt lat="44.60364" lon="-0.94377">
        <ele>-7.14</ele>
        <time>2015-12-04T12:24:52Z</time>
      </trkpt>
      <trkpt lat="44.60355" lon="-0.94405">
        <ele>-6.92</ele>
        <time>2015-12-04T12:25:05Z</time>
      </trkpt>
      <trkpt lat="44.60355" lon="-0.94405">
        <ele>-6.9</ele>
        <time>2015-12-04T12:25:07Z</time>
      </trkpt>
      <trkpt lat="44.60332" lon="-0.9441">
        <ele>-6.12</ele>
        <time>2015-12-04T12:25:22Z</time>
      </trkpt>
      <trkpt lat="44.60293" lon="-0.94404">
        <ele>-5.25</ele>
        <time>2015-12-04T12:25:33Z</time>
      </trkpt>
      <trkpt lat="44.60268" lon="-0.94389">
        <ele>-4.91</ele>
        <time>2015-12-04T12:25:43Z</time>
      </trkpt>
      <trkpt lat="44.60264" lon="-0.94388">
        <ele>-5.09</ele>
        <time>2015-12-04T12:26:12Z</time>
      </trkpt>
      <trkpt lat="44.60265" lon="-0.94395">
        <ele>-5.13</ele>
        <time>2015-12-04T12:26:25Z</time>
      </trkpt>
      <trkpt lat="44.6026" lon="-0.94402">
        <ele>-4.79</ele>
        <time>2015-12-04T12:26:30Z</time>
      </trkpt>
      <trkpt lat="44.60251" lon="-0.94411">
        <ele>-4.67</ele>
        <time>2015-12-04T12:26:36Z</time>
      </trkpt>
      <trkpt lat="44.60226" lon="-0.94435">
        <ele>-3.14</ele>
        <time>2015-12-04T12:26:49Z</time>
      </trkpt>
      <trkpt lat="44.60201" lon="-0.94461">
        <ele>-2.67</ele>
        <time>2015-12-04T12:27:01Z</time>
      </trkpt>
      <trkpt lat="44.60192" lon="-0.94471">
        <ele>-3.18</ele>
        <time>2015-12-04T12:27:05Z</time>
      </trkpt>
      <trkpt lat="44.60176" lon="-0.94481">
        <ele>-3.5</ele>
        <time>2015-12-04T12:27:11Z</time>
      </trkpt>
      <trkpt lat="44.60144" lon="-0.94513">
        <ele>-4.26</ele>
        <time>2015-12-04T12:27:26Z</time>
      </trkpt>
      <trkpt lat="44.60139" lon="-0.9452">
        <ele>-4.36</ele>
        <time>2015-12-04T12:27:36Z</time>
      </trkpt>
      <trkpt lat="44.60137" lon="-0.94527">
        <ele>-3.95</ele>
        <time>2015-12-04T12:27:51Z</time>
      </trkpt>
      <trkpt lat="44.60144" lon="-0.94544">
        <ele>-3.95</ele>
        <time>2015-12-04T12:28:00Z</time>
      </trkpt>
      <trkpt lat="44.6015" lon="-0.94555">
        <ele>-4.21</ele>
        <time>2015-12-04T12:28:06Z</time>
      </trkpt>
      <trkpt lat="44.60156" lon="-0.94572">
        <ele>-4.17</ele>
        <time>2015-12-04T12:28:14Z</time>
      </trkpt>
      <trkpt lat="44.60168" lon="-0.94608">
        <ele>-3.94</ele>
        <time>2015-12-04T12:28:28Z</time>
      </trkpt>
      <trkpt lat="44.60168" lon="-0.94624">
        <ele>-3.88</ele>
        <time>2015-12-04T12:28:33Z</time>
      </trkpt>
      <trkpt lat="44.60163" lon="-0.94635">
        <ele>-3.72</ele>
        <time>2015-12-04T12:28:37Z</time>
      </trkpt>
      <trkpt lat="44.60147" lon="-0.94655">
        <ele>-3.59</ele>
        <time>2015-12-04T12:28:45Z</time>
      </trkpt>
      <trkpt lat="44.60142" lon="-0.94659">
        <ele>-3.7</ele>
        <time>2015-12-04T12:28:49Z</time>
      </trkpt>
      <trkpt lat="44.60127" lon="-0.94682">
        <ele>-2.8</ele>
        <time>2015-12-04T12:29:00Z</time>
      </trkpt>
      <trkpt lat="44.60102" lon="-0.947">
        <ele>-1.35</ele>
        <time>2015-12-04T12:29:14Z</time>
      </trkpt>
      <trkpt lat="44.60079" lon="-0.94714">
        <ele>-2.13</ele>
        <time>2015-12-04T12:29:26Z</time>
      </trkpt>
      <trkpt lat="44.60055" lon="-0.9472">
        <ele>-2.31</ele>
        <time>2015-12-04T12:29:37Z</time>
      </trkpt>
      <trkpt lat="44.60043" lon="-0.94726">
        <ele>-2.77</ele>
        <time>2015-12-04T12:29:42Z</time>
      </trkpt>
      <trkpt lat="44.60044" lon="-0.94749">
        <ele>-2.93</ele>
        <time>2015-12-04T12:29:49Z</time>
      </trkpt>
      <trkpt lat="44.60063" lon="-0.94777">
        <ele>-2.85</ele>
        <time>2015-12-04T12:29:57Z</time>
      </trkpt>
      <trkpt lat="44.60077" lon="-0.94792">
        <ele>-2.55</ele>
        <time>2015-12-04T12:30:01Z</time>
      </trkpt>
      <trkpt lat="44.60093" lon="-0.94807">
        <ele>-2.03</ele>
        <time>2015-12-04T12:30:05Z</time>
      </trkpt>
      <trkpt lat="44.60122" lon="-0.9485">
        <ele>-2.83</ele>
        <time>2015-12-04T12:30:14Z</time>
      </trkpt>
      <trkpt lat="44.60143" lon="-0.94847">
        <ele>-3.26</ele>
        <time>2015-12-04T12:30:18Z</time>
      </trkpt>
      <trkpt lat="44.60207" lon="-0.94803">
        <ele>-3.81</ele>
        <time>2015-12-04T12:30:31Z</time>
      </trkpt>
      <trkpt lat="44.60241" lon="-0.94792">
        <ele>-2.93</ele>
        <time>2015-12-04T12:30:40Z</time>
      </trkpt>
      <trkpt lat="44.60265" lon="-0.94827">
        <ele>-3.66</ele>
        <time>2015-12-04T12:30:49Z</time>
      </trkpt>
      <trkpt lat="44.60266" lon="-0.94837">
        <ele>-3.25</ele>
        <time>2015-12-04T12:30:58Z</time>
      </trkpt>
      <trkpt lat="44.6025" lon="-0.94812">
        <ele>-2.61</ele>
        <time>2015-12-04T12:31:07Z</time>
      </trkpt>
      <trkpt lat="44.60236" lon="-0.94786">
        <ele>-2.72</ele>
        <time>2015-12-04T12:31:13Z</time>
      </trkpt>
      <trkpt lat="44.60214" lon="-0.94796">
        <ele>-3.13</ele>
        <time>2015-12-04T12:31:19Z</time>
      </trkpt>
      <trkpt lat="44.60206" lon="-0.94804">
        <ele>-3.72</ele>
        <time>2015-12-04T12:31:21Z</time>
      </trkpt>
      <trkpt lat="44.60146" lon="-0.94846">
        <ele>-3.42</ele>
        <time>2015-12-04T12:31:34Z</time>
      </trkpt>
      <trkpt lat="44.60117" lon="-0.94846">
        <ele>-2.16</ele>
        <time>2015-12-04T12:31:41Z</time>
      </trkpt>
      <trkpt lat="44.601" lon="-0.94819">
        <ele>-1.3</ele>
        <time>2015-12-04T12:31:48Z</time>
      </trkpt>
      <trkpt lat="44.60081" lon="-0.94799">
        <ele>-2.01</ele>
        <time>2015-12-04T12:31:53Z</time>
      </trkpt>
      <trkpt lat="44.60043" lon="-0.9477">
        <ele>-3.28</ele>
        <time>2015-12-04T12:32:02Z</time>
      </trkpt>
      <trkpt lat="44.60039" lon="-0.94787">
        <ele>-3.16</ele>
        <time>2015-12-04T12:32:07Z</time>
      </trkpt>
      <trkpt lat="44.60027" lon="-0.94893">
        <ele>-3.69</ele>
        <time>2015-12-04T12:32:22Z</time>
      </trkpt>
      <trkpt lat="44.6001" lon="-0.94974">
        <ele>-4.59</ele>
        <time>2015-12-04T12:32:33Z</time>
      </trkpt>
      <trkpt lat="44.60009" lon="-0.94997">
        <ele>-4.91</ele>
        <time>2015-12-04T12:32:37Z</time>
      </trkpt>
      <trkpt lat="44.60006" lon="-0.9501">
        <ele>-4.52</ele>
        <time>2015-12-04T12:32:41Z</time>
      </trkpt>
      <trkpt lat="44.5997" lon="-0.95018">
        <ele>-4.53</ele>
        <time>2015-12-04T12:32:53Z</time>
      </trkpt>
      <trkpt lat="44.59934" lon="-0.95008">
        <ele>-4.03</ele>
        <time>2015-12-04T12:33:04Z</time>
      </trkpt>
      <trkpt lat="44.59915" lon="-0.95005">
        <ele>-4.11</ele>
        <time>2015-12-04T12:33:08Z</time>
      </trkpt>
      <trkpt lat="44.59864" lon="-0.95002">
        <ele>-3.25</ele>
        <time>2015-12-04T12:33:20Z</time>
      </trkpt>
      <trkpt lat="44.59828" lon="-0.95006">
        <ele>-2.86</ele>
        <time>2015-12-04T12:33:29Z</time>
      </trkpt>
      <trkpt lat="44.59789" lon="-0.9501">
        <ele>-2.53</ele>
        <time>2015-12-04T12:33:41Z</time>
      </trkpt>
      <trkpt lat="44.59756" lon="-0.94987">
        <ele>-2.44</ele>
        <time>2015-12-04T12:33:52Z</time>
      </trkpt>
      <trkpt lat="44.59737" lon="-0.94993">
        <ele>-2.47</ele>
        <time>2015-12-04T12:33:59Z</time>
      </trkpt>
      <trkpt lat="44.59736" lon="-0.95036">
        <ele>-2.5</ele>
        <time>2015-12-04T12:34:10Z</time>
      </trkpt>
      <trkpt lat="44.59734" lon="-0.95051">
        <ele>-2.56</ele>
        <time>2015-12-04T12:34:13Z</time>
      </trkpt>
      <trkpt lat="44.59724" lon="-0.95063">
        <ele>-2.51</ele>
        <time>2015-12-04T12:34:18Z</time>
      </trkpt>
      <trkpt lat="44.59709" lon="-0.95076">
        <ele>-2.45</ele>
        <time>2015-12-04T12:34:29Z</time>
      </trkpt>
      <trkpt lat="44.5969" lon="-0.95091">
        <ele>-2.66</ele>
        <time>2015-12-04T12:34:45Z</time>
      </trkpt>
      <trkpt lat="44.59662" lon="-0.9511">
        <ele>-0.97</ele>
        <time>2015-12-04T12:34:57Z</time>
      </trkpt>
      <trkpt lat="44.59654" lon="-0.95117">
        <ele>-0.89</ele>
        <time>2015-12-04T12:35:00Z</time>
      </trkpt>
      <trkpt lat="44.59633" lon="-0.95142">
        <ele>-0.54</ele>
        <time>2015-12-04T12:35:10Z</time>
      </trkpt>
      <trkpt lat="44.59638" lon="-0.95166">
        <ele>-0.6</ele>
        <time>2015-12-04T12:35:14Z</time>
      </trkpt>
      <trkpt lat="44.5965" lon="-0.95229">
        <ele>-1.13</ele>
        <time>2015-12-04T12:35:22Z</time>
      </trkpt>
      <trkpt lat="44.59665" lon="-0.95293">
        <ele>-1.68</ele>
        <time>2015-12-04T12:35:33Z</time>
      </trkpt>
      <trkpt lat="44.59668" lon="-0.95302">
        <ele>-1.32</ele>
        <time>2015-12-04T12:35:35Z</time>
      </trkpt>
      <trkpt lat="44.59656" lon="-0.95326">
        <ele>-1.18</ele>
        <time>2015-12-04T12:35:41Z</time>
      </trkpt>
      <trkpt lat="44.59647" lon="-0.95369">
        <ele>-1.35</ele>
        <time>2015-12-04T12:35:49Z</time>
      </trkpt>
      <trkpt lat="44.59637" lon="-0.95444">
        <ele>-1.02</ele>
        <time>2015-12-04T12:36:03Z</time>
      </trkpt>
      <trkpt lat="44.5963" lon="-0.95468">
        <ele>-1.08</ele>
        <time>2015-12-04T12:36:07Z</time>
      </trkpt>
      <trkpt lat="44.59627" lon="-0.95479">
        <ele>-1.2</ele>
        <time>2015-12-04T12:36:09Z</time>
      </trkpt>
      <trkpt lat="44.59596" lon="-0.95508">
        <ele>-0.84</ele>
        <time>2015-12-04T12:36:17Z</time>
      </trkpt>
      <trkpt lat="44.5953" lon="-0.9554">
        <ele>-0.5</ele>
        <time>2015-12-04T12:36:31Z</time>
      </trkpt>
      <trkpt lat="44.59492" lon="-0.95551">
        <ele>-0.21</ele>
        <time>2015-12-04T12:36:40Z</time>
      </trkpt>
      <trkpt lat="44.59458" lon="-0.95556">
        <ele>-0.31</ele>
        <time>2015-12-04T12:36:49Z</time>
      </trkpt>
      <trkpt lat="44.59389" lon="-0.95581">
        <ele>0.12</ele>
        <time>2015-12-04T12:37:04Z</time>
      </trkpt>
      <trkpt lat="44.59388" lon="-0.95603">
        <ele>0.57</ele>
        <time>2015-12-04T12:37:08Z</time>
      </trkpt>
      <trkpt lat="44.59406" lon="-0.95706">
        <ele>0.21</ele>
        <time>2015-12-04T12:37:20Z</time>
      </trkpt>
      <trkpt lat="44.59412" lon="-0.95735">
        <ele>-0.52</ele>
        <time>2015-12-04T12:37:23Z</time>
      </trkpt>
      <trkpt lat="44.5943" lon="-0.95778">
        <ele>-0.62</ele>
        <time>2015-12-04T12:37:28Z</time>
      </trkpt>
      <trkpt lat="44.5945" lon="-0.95806">
        <ele>13</ele>
        <time>2015-12-04T12:37:33Z</time>
      </trkpt>
      <trkpt lat="44.59485" lon="-0.95828">
        <ele>0.01</ele>
        <time>2015-12-04T12:37:45Z</time>
      </trkpt>
      <trkpt lat="44.59514" lon="-0.95839">
        <ele>-0.07</ele>
        <time>2015-12-04T12:37:57Z</time>
      </trkpt>
      <trkpt lat="44.59515" lon="-0.95841">
        <ele>-0.2</ele>
        <time>2015-12-04T12:38:18Z</time>
      </trkpt>
      <trkpt lat="44.59519" lon="-0.95838">
        <ele>-0.07</ele>
        <time>2015-12-04T12:38:51Z</time>
      </trkpt>
      <trkpt lat="44.59516" lon="-0.9584">
        <ele>-0.02</ele>
        <time>2015-12-04T12:39:02Z</time>
      </trkpt>
      <trkpt lat="44.59478" lon="-0.95813">
        <ele>0.01</ele>
        <time>2015-12-04T12:39:14Z</time>
      </trkpt>
      <trkpt lat="44.59461" lon="-0.95804">
        <ele>0.13</ele>
        <time>2015-12-04T12:39:21Z</time>
      </trkpt>
      <trkpt lat="44.59455" lon="-0.95818">
        <ele>0.53</ele>
        <time>2015-12-04T12:39:27Z</time>
      </trkpt>
      <trkpt lat="44.59491" lon="-0.95905">
        <ele>0.51</ele>
        <time>2015-12-04T12:39:39Z</time>
      </trkpt>
      <trkpt lat="44.59542" lon="-0.96026">
        <ele>0.58</ele>
        <time>2015-12-04T12:39:52Z</time>
      </trkpt>
      <trkpt lat="44.59595" lon="-0.96145">
        <ele>0.23</ele>
        <time>2015-12-04T12:40:05Z</time>
      </trkpt>
      <trkpt lat="44.59659" lon="-0.96286">
        <ele>0.49</ele>
        <time>2015-12-04T12:40:20Z</time>
      </trkpt>
      <trkpt lat="44.5974" lon="-0.96466">
        <ele>0.31</ele>
        <time>2015-12-04T12:40:39Z</time>
      </trkpt>
      <trkpt lat="44.59797" lon="-0.96598">
        <ele>0.25</ele>
        <time>2015-12-04T12:40:53Z</time>
      </trkpt>
      <trkpt lat="44.59859" lon="-0.96739">
        <ele>-0.26</ele>
        <time>2015-12-04T12:41:08Z</time>
      </trkpt>
      <trkpt lat="44.59916" lon="-0.9687">
        <ele>-0.03</ele>
        <time>2015-12-04T12:41:21Z</time>
      </trkpt>
      <trkpt lat="44.59965" lon="-0.96977">
        <ele>-0.74</ele>
        <time>2015-12-04T12:41:32Z</time>
      </trkpt>
      <trkpt lat="44.60022" lon="-0.97104">
        <ele>-1.81</ele>
        <time>2015-12-04T12:41:46Z</time>
      </trkpt>
      <trkpt lat="44.6008" lon="-0.9723">
        <ele>-1.91</ele>
        <time>2015-12-04T12:42:01Z</time>
      </trkpt>
      <trkpt lat="44.60125" lon="-0.97328">
        <ele>-1.33</ele>
        <time>2015-12-04T12:42:15Z</time>
      </trkpt>
      <trkpt lat="44.6013" lon="-0.97339">
        <ele>-1.48</ele>
        <time>2015-12-04T12:42:17Z</time>
      </trkpt>
      <trkpt lat="44.60145" lon="-0.97375">
        <ele>-0.67</ele>
        <time>2015-12-04T12:42:25Z</time>
      </trkpt>
      <trkpt lat="44.60135" lon="-0.97356">
        <ele>-0.7</ele>
        <time>2015-12-04T12:42:32Z</time>
      </trkpt>
      <trkpt lat="44.60093" lon="-0.97261">
        <ele>-0.85</ele>
        <time>2015-12-04T12:42:43Z</time>
      </trkpt>
      <trkpt lat="44.60024" lon="-0.97098">
        <ele>-1.18</ele>
        <time>2015-12-04T12:42:59Z</time>
      </trkpt>
      <trkpt lat="44.59961" lon="-0.96955">
        <ele>-0.99</ele>
        <time>2015-12-04T12:43:13Z</time>
      </trkpt>
      <trkpt lat="44.59908" lon="-0.96838">
        <ele>-0.48</ele>
        <time>2015-12-04T12:43:25Z</time>
      </trkpt>
      <trkpt lat="44.59848" lon="-0.96714">
        <ele>0.21</ele>
        <time>2015-12-04T12:43:38Z</time>
      </trkpt>
      <trkpt lat="44.59844" lon="-0.96705">
        <ele>0.35</ele>
        <time>2015-12-04T12:43:39Z</time>
      </trkpt>
      <trkpt lat="44.59831" lon="-0.9668">
        <ele>0.33</ele>
        <time>2015-12-04T12:43:42Z</time>
      </trkpt>
      <trkpt lat="44.59831" lon="-0.96659">
        <ele>-0.35</ele>
        <time>2015-12-04T12:43:49Z</time>
      </trkpt>
      <trkpt lat="44.59832" lon="-0.96658">
        <ele>-0.4</ele>
        <time>2015-12-04T12:43:52Z</time>
      </trkpt>
      <trkpt lat="44.59851" lon="-0.96617">
        <ele>-0.02</ele>
        <time>2015-12-04T12:44:04Z</time>
      </trkpt>
      <trkpt lat="44.59859" lon="-0.96588">
        <ele>-0.11</ele>
        <time>2015-12-04T12:44:08Z</time>
      </trkpt>
      <trkpt lat="44.59882" lon="-0.96561">
        <ele>-0.3</ele>
        <time>2015-12-04T12:44:14Z</time>
      </trkpt>
      <trkpt lat="44.59916" lon="-0.96552">
        <ele>0.11</ele>
        <time>2015-12-04T12:44:21Z</time>
      </trkpt>
      <trkpt lat="44.59944" lon="-0.96551">
        <ele>-0.63</ele>
        <time>2015-12-04T12:44:26Z</time>
      </trkpt>
      <trkpt lat="44.59974" lon="-0.96559">
        <ele>-1.54</ele>
        <time>2015-12-04T12:44:31Z</time>
      </trkpt>
      <trkpt lat="44.60022" lon="-0.96547">
        <ele>13.6</ele>
        <time>2015-12-04T12:44:40Z</time>
      </trkpt>
      <trkpt lat="44.60054" lon="-0.96529">
        <ele>1.06</ele>
        <time>2015-12-04T12:44:49Z</time>
      </trkpt>
      <trkpt lat="44.60068" lon="-0.96561">
        <ele>0.13</ele>
        <time>2015-12-04T12:44:55Z</time>
      </trkpt>
      <trkpt lat="44.60081" lon="-0.96604">
        <ele>1.38</ele>
        <time>2015-12-04T12:45:01Z</time>
      </trkpt>
      <trkpt lat="44.60091" lon="-0.96628">
        <ele>1.87</ele>
        <time>2015-12-04T12:45:05Z</time>
      </trkpt>
      <trkpt lat="44.60098" lon="-0.9666">
        <ele>2.3</ele>
        <time>2015-12-04T12:45:10Z</time>
      </trkpt>
      <trkpt lat="44.60125" lon="-0.96726">
        <ele>2.38</ele>
        <time>2015-12-04T12:45:21Z</time>
      </trkpt>
      <trkpt lat="44.60138" lon="-0.96744">
        <ele>2.84</ele>
        <time>2015-12-04T12:45:27Z</time>
      </trkpt>
      <trkpt lat="44.6015" lon="-0.96739">
        <ele>2.7</ele>
        <time>2015-12-04T12:45:32Z</time>
      </trkpt>
      <trkpt lat="44.6017" lon="-0.96706">
        <ele>0.54</ele>
        <time>2015-12-04T12:45:42Z</time>
      </trkpt>
      <trkpt lat="44.60176" lon="-0.96721">
        <ele>0.98</ele>
        <time>2015-12-04T12:45:48Z</time>
      </trkpt>
      <trkpt lat="44.60183" lon="-0.96731">
        <ele>0.57</ele>
        <time>2015-12-04T12:45:51Z</time>
      </trkpt>
      <trkpt lat="44.60189" lon="-0.96714">
        <ele>-0.57</ele>
        <time>2015-12-04T12:45:59Z</time>
      </trkpt>
      <trkpt lat="44.60191" lon="-0.96669">
        <ele>-0.13</ele>
        <time>2015-12-04T12:46:10Z</time>
      </trkpt>
      <trkpt lat="44.60202" lon="-0.9664">
        <ele>0.77</ele>
        <time>2015-12-04T12:46:15Z</time>
      </trkpt>
      <trkpt lat="44.602" lon="-0.96602">
        <ele>0.23</ele>
        <time>2015-12-04T12:46:20Z</time>
      </trkpt>
      <trkpt lat="44.60191" lon="-0.96539">
        <ele>-1.22</ele>
        <time>2015-12-04T12:46:26Z</time>
      </trkpt>
      <trkpt lat="44.60184" lon="-0.96511">
        <ele>-1.4</ele>
        <time>2015-12-04T12:46:29Z</time>
      </trkpt>
      <trkpt lat="44.60157" lon="-0.96456">
        <ele>-1.36</ele>
        <time>2015-12-04T12:46:36Z</time>
      </trkpt>
      <trkpt lat="44.60137" lon="-0.96394">
        <ele>-1.74</ele>
        <time>2015-12-04T12:46:45Z</time>
      </trkpt>
      <trkpt lat="44.60147" lon="-0.96376">
        <ele>-1.69</ele>
        <time>2015-12-04T12:46:49Z</time>
      </trkpt>
      <trkpt lat="44.60187" lon="-0.96349">
        <ele>-1.66</ele>
        <time>2015-12-04T12:46:57Z</time>
      </trkpt>
      <trkpt lat="44.6021" lon="-0.96349">
        <ele>-2.02</ele>
        <time>2015-12-04T12:47:01Z</time>
      </trkpt>
      <trkpt lat="44.60243" lon="-0.96367">
        <ele>-1.82</ele>
        <time>2015-12-04T12:47:07Z</time>
      </trkpt>
      <trkpt lat="44.60259" lon="-0.9637">
        <ele>-2.46</ele>
        <time>2015-12-04T12:47:10Z</time>
      </trkpt>
      <trkpt lat="44.60281" lon="-0.9638">
        <ele>-2.28</ele>
        <time>2015-12-04T12:47:14Z</time>
      </trkpt>
      <trkpt lat="44.60303" lon="-0.96362">
        <ele>-2.12</ele>
        <time>2015-12-04T12:47:20Z</time>
      </trkpt>
      <trkpt lat="44.60303" lon="-0.96303">
        <ele>-2.37</ele>
        <time>2015-12-04T12:47:27Z</time>
      </trkpt>
      <trkpt lat="44.60312" lon="-0.9627">
        <ele>-2.33</ele>
        <time>2015-12-04T12:47:31Z</time>
      </trkpt>
      <trkpt lat="44.60338" lon="-0.96243">
        <ele>-2.16</ele>
        <time>2015-12-04T12:47:37Z</time>
      </trkpt>
      <trkpt lat="44.60375" lon="-0.96218">
        <ele>-2.55</ele>
        <time>2015-12-04T12:47:46Z</time>
      </trkpt>
      <trkpt lat="44.60392" lon="-0.96201">
        <ele>-2.53</ele>
        <time>2015-12-04T12:47:54Z</time>
      </trkpt>
      <trkpt lat="44.60397" lon="-0.96207">
        <ele>-2.44</ele>
        <time>2015-12-04T12:47:56Z</time>
      </trkpt>
      <trkpt lat="44.60419" lon="-0.9622">
        <ele>-2.52</ele>
        <time>2015-12-04T12:48:03Z</time>
      </trkpt>
      <trkpt lat="44.60431" lon="-0.96228">
        <ele>-3.04</ele>
        <time>2015-12-04T12:48:06Z</time>
      </trkpt>
      <trkpt lat="44.60453" lon="-0.96247">
        <ele>-3.23</ele>
        <time>2015-12-04T12:48:11Z</time>
      </trkpt>
      <trkpt lat="44.60462" lon="-0.96257">
        <ele>-3.31</ele>
        <time>2015-12-04T12:48:13Z</time>
      </trkpt>
      <trkpt lat="44.60492" lon="-0.9628">
        <ele>-2</ele>
        <time>2015-12-04T12:48:19Z</time>
      </trkpt>
      <trkpt lat="44.60518" lon="-0.96298">
        <ele>-2.17</ele>
        <time>2015-12-04T12:48:24Z</time>
      </trkpt>
      <trkpt lat="44.60592" lon="-0.96388">
        <ele>-2.35</ele>
        <time>2015-12-04T12:48:39Z</time>
      </trkpt>
      <trkpt lat="44.60602" lon="-0.96402">
        <ele>-2.44</ele>
        <time>2015-12-04T12:48:41Z</time>
      </trkpt>
      <trkpt lat="44.6064" lon="-0.96434">
        <ele>-2.16</ele>
        <time>2015-12-04T12:48:50Z</time>
      </trkpt>
      <trkpt lat="44.60657" lon="-0.96445">
        <ele>-2.7</ele>
        <time>2015-12-04T12:48:59Z</time>
      </trkpt>
      <trkpt lat="44.60681" lon="-0.9646">
        <ele>-3</ele>
        <time>2015-12-04T12:49:07Z</time>
      </trkpt>
      <trkpt lat="44.6073" lon="-0.96493">
        <ele>-3.61</ele>
        <time>2015-12-04T12:49:16Z</time>
      </trkpt>
      <trkpt lat="44.60745" lon="-0.96518">
        <ele>-4.03</ele>
        <time>2015-12-04T12:49:20Z</time>
      </trkpt>
      <trkpt lat="44.60761" lon="-0.96547">
        <ele>-3.97</ele>
        <time>2015-12-04T12:49:25Z</time>
      </trkpt>
      <trkpt lat="44.60776" lon="-0.96577">
        <ele>-3.84</ele>
        <time>2015-12-04T12:49:31Z</time>
      </trkpt>
      <trkpt lat="44.60792" lon="-0.96618">
        <ele>-4.07</ele>
        <time>2015-12-04T12:49:45Z</time>
      </trkpt>
      <trkpt lat="44.6079" lon="-0.96613">
        <ele>-4.04</ele>
        <time>2015-12-04T12:50:06Z</time>
      </trkpt>
      <trkpt lat="44.60773" lon="-0.96565">
        <ele>-4.05</ele>
        <time>2015-12-04T12:50:17Z</time>
      </trkpt>
      <trkpt lat="44.60771" lon="-0.96559">
        <ele>-4.1</ele>
        <time>2015-12-04T12:50:18Z</time>
      </trkpt>
      <trkpt lat="44.60759" lon="-0.96537">
        <ele>-4.09</ele>
        <time>2015-12-04T12:50:22Z</time>
      </trkpt>
      <trkpt lat="44.60744" lon="-0.96508">
        <ele>-4.11</ele>
        <time>2015-12-04T12:50:28Z</time>
      </trkpt>
      <trkpt lat="44.60738" lon="-0.96498">
        <ele>-3.96</ele>
        <time>2015-12-04T12:50:30Z</time>
      </trkpt>
      <trkpt lat="44.60683" lon="-0.96456">
        <ele>-3.14</ele>
        <time>2015-12-04T12:50:41Z</time>
      </trkpt>
      <trkpt lat="44.6065" lon="-0.96436">
        <ele>-2.35</ele>
        <time>2015-12-04T12:50:48Z</time>
      </trkpt>
      <trkpt lat="44.60622" lon="-0.96415">
        <ele>-1.42</ele>
        <time>2015-12-04T12:50:54Z</time>
      </trkpt>
      <trkpt lat="44.60571" lon="-0.96347">
        <ele>-1.97</ele>
        <time>2015-12-04T12:51:05Z</time>
      </trkpt>
      <trkpt lat="44.6053" lon="-0.96295">
        <ele>-1.95</ele>
        <time>2015-12-04T12:51:14Z</time>
      </trkpt>
      <trkpt lat="44.60518" lon="-0.96288">
        <ele>-1.74</ele>
        <time>2015-12-04T12:51:16Z</time>
      </trkpt>
      <trkpt lat="44.60502" lon="-0.96275">
        <ele>-1.84</ele>
        <time>2015-12-04T12:51:19Z</time>
      </trkpt>
      <trkpt lat="44.60476" lon="-0.96256">
        <ele>-1.75</ele>
        <time>2015-12-04T12:51:24Z</time>
      </trkpt>
      <trkpt lat="44.60458" lon="-0.96235">
        <ele>-2.33</ele>
        <time>2015-12-04T12:51:28Z</time>
      </trkpt>
      <trkpt lat="44.60408" lon="-0.96212">
        <ele>-2.17</ele>
        <time>2015-12-04T12:51:37Z</time>
      </trkpt>
      <trkpt lat="44.60393" lon="-0.96196">
        <ele>-2.16</ele>
        <time>2015-12-04T12:51:40Z</time>
      </trkpt>
      <trkpt lat="44.60381" lon="-0.96159">
        <ele>-3.45</ele>
        <time>2015-12-04T12:51:45Z</time>
      </trkpt>
      <trkpt lat="44.6038" lon="-0.96143">
        <ele>-4.32</ele>
        <time>2015-12-04T12:51:47Z</time>
      </trkpt>
      <trkpt lat="44.60353" lon="-0.96077">
        <ele>-4.11</ele>
        <time>2015-12-04T12:51:59Z</time>
      </trkpt>
      <trkpt lat="44.60332" lon="-0.96051">
        <ele>-3.91</ele>
        <time>2015-12-04T12:52:13Z</time>
      </trkpt>
      <trkpt lat="44.60334" lon="-0.96047">
        <ele>-3.88</ele>
        <time>2015-12-04T12:52:27Z</time>
      </trkpt>
      <trkpt lat="44.60355" lon="-0.96081">
        <ele>-5.41</ele>
        <time>2015-12-04T12:52:40Z</time>
      </trkpt>
      <trkpt lat="44.60363" lon="-0.96109">
        <ele>-4.74</ele>
        <time>2015-12-04T12:52:52Z</time>
      </trkpt>
      <trkpt lat="44.60362" lon="-0.96115">
        <ele>-4.79</ele>
        <time>2015-12-04T12:53:10Z</time>
      </trkpt>
      <trkpt lat="44.60362" lon="-0.96119">
        <ele>-4.57</ele>
        <time>2015-12-04T12:53:17Z</time>
      </trkpt>
      <trkpt lat="44.60359" lon="-0.96125">
        <ele>-4.69</ele>
        <time>2015-12-04T12:53:21Z</time>
      </trkpt>
      <trkpt lat="44.60327" lon="-0.96146">
        <ele>-4.29</ele>
        <time>2015-12-04T12:53:35Z</time>
      </trkpt>
      <trkpt lat="44.60309" lon="-0.96145">
        <ele>-4.22</ele>
        <time>2015-12-04T12:53:41Z</time>
      </trkpt>
      <trkpt lat="44.60308" lon="-0.96142">
        <ele>-3.82</ele>
        <time>2015-12-04T12:53:45Z</time>
      </trkpt>
      <trkpt lat="44.60322" lon="-0.96142">
        <ele>-4.35</ele>
        <time>2015-12-04T12:53:52Z</time>
      </trkpt>
      <trkpt lat="44.6036" lon="-0.96115">
        <ele>-4.62</ele>
        <time>2015-12-04T12:54:04Z</time>
      </trkpt>
      <trkpt lat="44.60353" lon="-0.96089">
        <ele>-4.35</ele>
        <time>2015-12-04T12:54:10Z</time>
      </trkpt>
      <trkpt lat="44.60329" lon="-0.96051">
        <ele>-3.83</ele>
        <time>2015-12-04T12:54:19Z</time>
      </trkpt>
      <trkpt lat="44.60316" lon="-0.96036">
        <ele>-3.46</ele>
        <time>2015-12-04T12:54:22Z</time>
      </trkpt>
      <trkpt lat="44.6031" lon="-0.96028">
        <ele>-3.5</ele>
        <time>2015-12-04T12:54:24Z</time>
      </trkpt>
      <trkpt lat="44.60276" lon="-0.95963">
        <ele>-3.53</ele>
        <time>2015-12-04T12:54:35Z</time>
      </trkpt>
      <trkpt lat="44.60253" lon="-0.95926">
        <ele>-3.85</ele>
        <time>2015-12-04T12:54:41Z</time>
      </trkpt>
      <trkpt lat="44.60234" lon="-0.95905">
        <ele>-3.85</ele>
        <time>2015-12-04T12:54:46Z</time>
      </trkpt>
      <trkpt lat="44.60213" lon="-0.95869">
        <ele>-3.86</ele>
        <time>2015-12-04T12:54:53Z</time>
      </trkpt>
      <trkpt lat="44.60212" lon="-0.95828">
        <ele>-3.55</ele>
        <time>2015-12-04T12:54:59Z</time>
      </trkpt>
      <trkpt lat="44.60218" lon="-0.95812">
        <ele>-3.55</ele>
        <time>2015-12-04T12:55:01Z</time>
      </trkpt>
      <trkpt lat="44.60236" lon="-0.9577">
        <ele>-3.99</ele>
        <time>2015-12-04T12:55:06Z</time>
      </trkpt>
      <trkpt lat="44.60241" lon="-0.95733">
        <ele>-3.87</ele>
        <time>2015-12-04T12:55:10Z</time>
      </trkpt>
      <trkpt lat="44.60223" lon="-0.95606">
        <ele>-3.86</ele>
        <time>2015-12-04T12:55:24Z</time>
      </trkpt>
      <trkpt lat="44.60219" lon="-0.95572">
        <ele>-4.24</ele>
        <time>2015-12-04T12:55:28Z</time>
      </trkpt>
      <trkpt lat="44.60176" lon="-0.95487">
        <ele>-3.5</ele>
        <time>2015-12-04T12:55:42Z</time>
      </trkpt>
      <trkpt lat="44.60167" lon="-0.95471">
        <ele>-3.58</ele>
        <time>2015-12-04T12:55:45Z</time>
      </trkpt>
      <trkpt lat="44.60145" lon="-0.95426">
        <ele>-3.74</ele>
        <time>2015-12-04T12:55:53Z</time>
      </trkpt>
      <trkpt lat="44.60136" lon="-0.95407">
        <ele>-3.96</ele>
        <time>2015-12-04T12:55:57Z</time>
      </trkpt>
      <trkpt lat="44.60153" lon="-0.95397">
        <ele>-2.93</ele>
        <time>2015-12-04T12:56:04Z</time>
      </trkpt>
      <trkpt lat="44.60214" lon="-0.95411">
        <ele>-1.76</ele>
        <time>2015-12-04T12:56:19Z</time>
      </trkpt>
      <trkpt lat="44.60287" lon="-0.95423">
        <ele>-2.97</ele>
        <time>2015-12-04T12:56:33Z</time>
      </trkpt>
      <trkpt lat="44.60356" lon="-0.95437">
        <ele>-1.97</ele>
        <time>2015-12-04T12:56:49Z</time>
      </trkpt>
      <trkpt lat="44.60405" lon="-0.95445">
        <ele>-1.79</ele>
        <time>2015-12-04T12:57:01Z</time>
      </trkpt>
      <trkpt lat="44.6047" lon="-0.95475">
        <ele>-3.61</ele>
        <time>2015-12-04T12:57:14Z</time>
      </trkpt>
      <trkpt lat="44.60482" lon="-0.95489">
        <ele>-3.58</ele>
        <time>2015-12-04T12:57:17Z</time>
      </trkpt>
      <trkpt lat="44.60492" lon="-0.95499">
        <ele>-3.57</ele>
        <time>2015-12-04T12:57:19Z</time>
      </trkpt>
      <trkpt lat="44.60515" lon="-0.95514">
        <ele>-3.66</ele>
        <time>2015-12-04T12:57:23Z</time>
      </trkpt>
      <trkpt lat="44.60567" lon="-0.95556">
        <ele>-4.42</ele>
        <time>2015-12-04T12:57:32Z</time>
      </trkpt>
      <trkpt lat="44.60586" lon="-0.95566">
        <ele>-4.68</ele>
        <time>2015-12-04T12:57:35Z</time>
      </trkpt>
      <trkpt lat="44.60625" lon="-0.95609">
        <ele>-3.94</ele>
        <time>2015-12-04T12:57:42Z</time>
      </trkpt>
      <trkpt lat="44.6065" lon="-0.95639">
        <ele>-4.52</ele>
        <time>2015-12-04T12:57:47Z</time>
      </trkpt>
      <trkpt lat="44.60675" lon="-0.9567">
        <ele>-4.93</ele>
        <time>2015-12-04T12:57:52Z</time>
      </trkpt>
      <trkpt lat="44.60702" lon="-0.95701">
        <ele>-4.35</ele>
        <time>2015-12-04T12:57:58Z</time>
      </trkpt>
      <trkpt lat="44.60733" lon="-0.95743">
        <ele>-4.84</ele>
        <time>2015-12-04T12:58:06Z</time>
      </trkpt>
      <trkpt lat="44.60776" lon="-0.95826">
        <ele>-5.12</ele>
        <time>2015-12-04T12:58:19Z</time>
      </trkpt>
      <trkpt lat="44.60779" lon="-0.95832">
        <ele>-5.36</ele>
        <time>2015-12-04T12:58:20Z</time>
      </trkpt>
      <trkpt lat="44.60778" lon="-0.95856">
        <ele>-5.11</ele>
        <time>2015-12-04T12:58:26Z</time>
      </trkpt>
      <trkpt lat="44.60754" lon="-0.95885">
        <ele>-4.79</ele>
        <time>2015-12-04T12:58:35Z</time>
      </trkpt>
      <trkpt lat="44.60732" lon="-0.95905">
        <ele>-5.09</ele>
        <time>2015-12-04T12:58:46Z</time>
      </trkpt>
      <trkpt lat="44.60734" lon="-0.95902">
        <ele>-5.24</ele>
        <time>2015-12-04T12:58:52Z</time>
      </trkpt>
      <trkpt lat="44.60767" lon="-0.95873">
        <ele>-4.54</ele>
        <time>2015-12-04T12:59:05Z</time>
      </trkpt>
      <trkpt lat="44.60778" lon="-0.95856">
        <ele>-4.39</ele>
        <time>2015-12-04T12:59:09Z</time>
      </trkpt>
      <trkpt lat="44.60798" lon="-0.95855">
        <ele>-4.79</ele>
        <time>2015-12-04T12:59:17Z</time>
      </trkpt>
      <trkpt lat="44.60801" lon="-0.9586">
        <ele>-4.8</ele>
        <time>2015-12-04T12:59:18Z</time>
      </trkpt>
      <trkpt lat="44.60838" lon="-0.95937">
        <ele>-5.24</ele>
        <time>2015-12-04T12:59:29Z</time>
      </trkpt>
      <trkpt lat="44.60893" lon="-0.96053">
        <ele>-5.15</ele>
        <time>2015-12-04T12:59:43Z</time>
      </trkpt>
      <trkpt lat="44.60948" lon="-0.96175">
        <ele>-5.89</ele>
        <time>2015-12-04T12:59:57Z</time>
      </trkpt>
      <trkpt lat="44.60983" lon="-0.96251">
        <ele>-5.34</ele>
        <time>2015-12-04T13:00:07Z</time>
      </trkpt>
      <trkpt lat="44.61004" lon="-0.96301">
        <ele>-6.75</ele>
        <time>2015-12-04T13:00:14Z</time>
      </trkpt>
      <trkpt lat="44.61023" lon="-0.96327">
        <ele>-6.05</ele>
        <time>2015-12-04T13:00:19Z</time>
      </trkpt>
      <trkpt lat="44.61047" lon="-0.96358">
        <ele>-7.2</ele>
        <time>2015-12-04T13:00:25Z</time>
      </trkpt>
      <trkpt lat="44.61062" lon="-0.96376">
        <ele>-6.68</ele>
        <time>2015-12-04T13:00:29Z</time>
      </trkpt>
      <trkpt lat="44.61078" lon="-0.96396">
        <ele>-6.2</ele>
        <time>2015-12-04T13:00:33Z</time>
      </trkpt>
      <trkpt lat="44.61109" lon="-0.96447">
        <ele>-6.71</ele>
        <time>2015-12-04T13:00:42Z</time>
      </trkpt>
      <trkpt lat="44.61139" lon="-0.96516">
        <ele>-6.25</ele>
        <time>2015-12-04T13:00:54Z</time>
      </trkpt>
      <trkpt lat="44.61162" lon="-0.96602">
        <ele>-6.44</ele>
        <time>2015-12-04T13:01:07Z</time>
      </trkpt>
      <trkpt lat="44.61166" lon="-0.96635">
        <ele>-6.33</ele>
        <time>2015-12-04T13:01:12Z</time>
      </trkpt>
      <trkpt lat="44.6117" lon="-0.96659">
        <ele>-5.91</ele>
        <time>2015-12-04T13:01:16Z</time>
      </trkpt>
      <trkpt lat="44.6119" lon="-0.96759">
        <ele>-6.1</ele>
        <time>2015-12-04T13:01:30Z</time>
      </trkpt>
      <trkpt lat="44.61193" lon="-0.96772">
        <ele>-6.32</ele>
        <time>2015-12-04T13:01:32Z</time>
      </trkpt>
      <trkpt lat="44.61227" lon="-0.96838">
        <ele>-6.93</ele>
        <time>2015-12-04T13:01:43Z</time>
      </trkpt>
      <trkpt lat="44.61233" lon="-0.96856">
        <ele>-6.9</ele>
        <time>2015-12-04T13:01:47Z</time>
      </trkpt>
      <trkpt lat="44.6124" lon="-0.96864">
        <ele>-6.42</ele>
        <time>2015-12-04T13:02:02Z</time>
      </trkpt>
      <trkpt lat="44.61238" lon="-0.96862">
        <ele>-6.43</ele>
        <time>2015-12-04T13:02:12Z</time>
      </trkpt>
      <trkpt lat="44.61234" lon="-0.96849">
        <ele>-6.22</ele>
        <time>2015-12-04T13:02:17Z</time>
      </trkpt>
      <trkpt lat="44.61207" lon="-0.968">
        <ele>-5.96</ele>
        <time>2015-12-04T13:02:29Z</time>
      </trkpt>
      <trkpt lat="44.61202" lon="-0.96791">
        <ele>-6.15</ele>
        <time>2015-12-04T13:02:31Z</time>
      </trkpt>
      <trkpt lat="44.61197" lon="-0.96773">
        <ele>-5.79</ele>
        <time>2015-12-04T13:02:34Z</time>
      </trkpt>
      <trkpt lat="44.61181" lon="-0.96674">
        <ele>-5.77</ele>
        <time>2015-12-04T13:02:47Z</time>
      </trkpt>
      <trkpt lat="44.61156" lon="-0.96558">
        <ele>-5.8</ele>
        <time>2015-12-04T13:03:01Z</time>
      </trkpt>
      <trkpt lat="44.61144" lon="-0.96521">
        <ele>-6.14</ele>
        <time>2015-12-04T13:03:06Z</time>
      </trkpt>
      <trkpt lat="44.61133" lon="-0.96497">
        <ele>-6</ele>
        <time>2015-12-04T13:03:10Z</time>
      </trkpt>
      <trkpt lat="44.61107" lon="-0.96423">
        <ele>-5.95</ele>
        <time>2015-12-04T13:03:22Z</time>
      </trkpt>
      <trkpt lat="44.61088" lon="-0.964">
        <ele>-6.34</ele>
        <time>2015-12-04T13:03:27Z</time>
      </trkpt>
      <trkpt lat="44.61057" lon="-0.96362">
        <ele>-5.97</ele>
        <time>2015-12-04T13:03:35Z</time>
      </trkpt>
      <trkpt lat="44.61018" lon="-0.96315">
        <ele>-6.48</ele>
        <time>2015-12-04T13:03:45Z</time>
      </trkpt>
      <trkpt lat="44.61005" lon="-0.96297">
        <ele>-5.77</ele>
        <time>2015-12-04T13:03:48Z</time>
      </trkpt>
      <trkpt lat="44.60995" lon="-0.96268">
        <ele>-6.52</ele>
        <time>2015-12-04T13:03:52Z</time>
      </trkpt>
      <trkpt lat="44.60972" lon="-0.96222">
        <ele>-5.63</ele>
        <time>2015-12-04T13:03:59Z</time>
      </trkpt>
      <trkpt lat="44.60933" lon="-0.96136">
        <ele>-5.61</ele>
        <time>2015-12-04T13:04:12Z</time>
      </trkpt>
      <trkpt lat="44.60884" lon="-0.96029">
        <ele>-5.32</ele>
        <time>2015-12-04T13:04:26Z</time>
      </trkpt>
      <trkpt lat="44.60836" lon="-0.95927">
        <ele>-4.67</ele>
        <time>2015-12-04T13:04:38Z</time>
      </trkpt>
      <trkpt lat="44.6081" lon="-0.95871">
        <ele>-4.79</ele>
        <time>2015-12-04T13:04:45Z</time>
      </trkpt>
      <trkpt lat="44.60762" lon="-0.95781">
        <ele>-4.67</ele>
        <time>2015-12-04T13:04:57Z</time>
      </trkpt>
      <trkpt lat="44.60752" lon="-0.95762">
        <ele>-5.04</ele>
        <time>2015-12-04T13:05:00Z</time>
      </trkpt>
      <trkpt lat="44.60757" lon="-0.95742">
        <ele>-4.91</ele>
        <time>2015-12-04T13:05:09Z</time>
      </trkpt>
      <trkpt lat="44.60805" lon="-0.95755">
        <ele>-4.89</ele>
        <time>2015-12-04T13:05:17Z</time>
      </trkpt>
      <trkpt lat="44.6085" lon="-0.95763">
        <ele>-4.99</ele>
        <time>2015-12-04T13:05:24Z</time>
      </trkpt>
      <trkpt lat="44.60876" lon="-0.95758">
        <ele>-4.89</ele>
        <time>2015-12-04T13:05:28Z</time>
      </trkpt>
      <trkpt lat="44.60943" lon="-0.9577">
        <ele>-6.85</ele>
        <time>2015-12-04T13:05:38Z</time>
      </trkpt>
      <trkpt lat="44.6095" lon="-0.95771">
        <ele>-6.86</ele>
        <time>2015-12-04T13:05:39Z</time>
      </trkpt>
      <trkpt lat="44.60985" lon="-0.95769">
        <ele>-6.23</ele>
        <time>2015-12-04T13:05:48Z</time>
      </trkpt>
      <trkpt lat="44.61017" lon="-0.95741">
        <ele>-5.92</ele>
        <time>2015-12-04T13:06:00Z</time>
      </trkpt>
      <trkpt lat="44.6104" lon="-0.9574">
        <ele>-5.86</ele>
        <time>2015-12-04T13:06:11Z</time>
      </trkpt>
      <trkpt lat="44.61066" lon="-0.9574">
        <ele>-6.18</ele>
        <time>2015-12-04T13:06:24Z</time>
      </trkpt>
      <trkpt lat="44.61084" lon="-0.95734">
        <ele>-6.28</ele>
        <time>2015-12-04T13:06:36Z</time>
      </trkpt>
      <trkpt lat="44.61085" lon="-0.95733">
        <ele>-6.42</ele>
        <time>2015-12-04T13:06:38Z</time>
      </trkpt>
      <trkpt lat="44.61106" lon="-0.95733">
        <ele>-7.25</ele>
        <time>2015-12-04T13:06:51Z</time>
      </trkpt>
      <trkpt lat="44.61112" lon="-0.95739">
        <ele>-7.42</ele>
        <time>2015-12-04T13:06:55Z</time>
      </trkpt>
      <trkpt lat="44.61119" lon="-0.95742">
        <ele>-7.75</ele>
        <time>2015-12-04T13:06:57Z</time>
      </trkpt>
      <trkpt lat="44.61133" lon="-0.95747">
        <ele>-7.82</ele>
        <time>2015-12-04T13:07:00Z</time>
      </trkpt>
      <trkpt lat="44.61148" lon="-0.95759">
        <ele>-6.61</ele>
        <time>2015-12-04T13:07:04Z</time>
      </trkpt>
      <trkpt lat="44.61182" lon="-0.95792">
        <ele>-6.45</ele>
        <time>2015-12-04T13:07:16Z</time>
      </trkpt>
      <trkpt lat="44.61186" lon="-0.95795">
        <ele>-6.11</ele>
        <time>2015-12-04T13:07:18Z</time>
      </trkpt>
      <trkpt lat="44.612" lon="-0.95826">
        <ele>-6.59</ele>
        <time>2015-12-04T13:07:30Z</time>
      </trkpt>
      <trkpt lat="44.61209" lon="-0.95829">
        <ele>-6.07</ele>
        <time>2015-12-04T13:07:34Z</time>
      </trkpt>
      <trkpt lat="44.61217" lon="-0.95851">
        <ele>-6.3</ele>
        <time>2015-12-04T13:07:41Z</time>
      </trkpt>
      <trkpt lat="44.61223" lon="-0.95891">
        <ele>-6.07</ele>
        <time>2015-12-04T13:07:51Z</time>
      </trkpt>
      <trkpt lat="44.61228" lon="-0.95921">
        <ele>-6.2</ele>
        <time>2015-12-04T13:07:58Z</time>
      </trkpt>
      <trkpt lat="44.61227" lon="-0.95939">
        <ele>-6.17</ele>
        <time>2015-12-04T13:08:02Z</time>
      </trkpt>
      <trkpt lat="44.61236" lon="-0.95967">
        <ele>-5.97</ele>
        <time>2015-12-04T13:08:09Z</time>
      </trkpt>
      <trkpt lat="44.61234" lon="-0.96028">
        <ele>-6.57</ele>
        <time>2015-12-04T13:08:20Z</time>
      </trkpt>
      <trkpt lat="44.61232" lon="-0.9605">
        <ele>-6.8</ele>
        <time>2015-12-04T13:08:24Z</time>
      </trkpt>
      <trkpt lat="44.61232" lon="-0.96103">
        <ele>-6.55</ele>
        <time>2015-12-04T13:08:35Z</time>
      </trkpt>
      <trkpt lat="44.61233" lon="-0.96155">
        <ele>-7.29</ele>
        <time>2015-12-04T13:08:45Z</time>
      </trkpt>
      <trkpt lat="44.61234" lon="-0.96194">
        <ele>-6.69</ele>
        <time>2015-12-04T13:08:54Z</time>
      </trkpt>
      <trkpt lat="44.61234" lon="-0.96198">
        <ele>-6.57</ele>
        <time>2015-12-04T13:08:55Z</time>
      </trkpt>
      <trkpt lat="44.61237" lon="-0.96232">
        <ele>-6.68</ele>
        <time>2015-12-04T13:09:04Z</time>
      </trkpt>
      <trkpt lat="44.61244" lon="-0.96291">
        <ele>-7.46</ele>
        <time>2015-12-04T13:09:15Z</time>
      </trkpt>
      <trkpt lat="44.61239" lon="-0.96309">
        <ele>-6.45</ele>
        <time>2015-12-04T13:09:19Z</time>
      </trkpt>
      <trkpt lat="44.61238" lon="-0.96317">
        <ele>-6.69</ele>
        <time>2015-12-04T13:09:21Z</time>
      </trkpt>
      <trkpt lat="44.61239" lon="-0.96373">
        <ele>-7.15</ele>
        <time>2015-12-04T13:09:33Z</time>
      </trkpt>
      <trkpt lat="44.61245" lon="-0.96407">
        <ele>-6.53</ele>
        <time>2015-12-04T13:09:43Z</time>
      </trkpt>
      <trkpt lat="44.61247" lon="-0.96423">
        <ele>-6.48</ele>
        <time>2015-12-04T13:09:46Z</time>
      </trkpt>
      <trkpt lat="44.61248" lon="-0.9644">
        <ele>-6.66</ele>
        <time>2015-12-04T13:09:49Z</time>
      </trkpt>
      <trkpt lat="44.61258" lon="-0.9647">
        <ele>-6.53</ele>
        <time>2015-12-04T13:09:55Z</time>
      </trkpt>
      <trkpt lat="44.61261" lon="-0.96482">
        <ele>-6.7</ele>
        <time>2015-12-04T13:09:57Z</time>
      </trkpt>
      <trkpt lat="44.61273" lon="-0.96501">
        <ele>-6.57</ele>
        <time>2015-12-04T13:10:01Z</time>
      </trkpt>
      <trkpt lat="44.61288" lon="-0.96536">
        <ele>-6.67</ele>
        <time>2015-12-04T13:10:11Z</time>
      </trkpt>
      <trkpt lat="44.6129" lon="-0.96538">
        <ele>-6.67</ele>
        <time>2015-12-04T13:10:25Z</time>
      </trkpt>
      <trkpt lat="44.61291" lon="-0.96542">
        <ele>-6.58</ele>
        <time>2015-12-04T13:10:38Z</time>
      </trkpt>
      <trkpt lat="44.61296" lon="-0.96574">
        <ele>-6.45</ele>
        <time>2015-12-04T13:10:46Z</time>
      </trkpt>
      <trkpt lat="44.6131" lon="-0.96618">
        <ele>-6.37</ele>
        <time>2015-12-04T13:10:55Z</time>
      </trkpt>
      <trkpt lat="44.61316" lon="-0.96634">
        <ele>-6.1</ele>
        <time>2015-12-04T13:10:58Z</time>
      </trkpt>
      <trkpt lat="44.61322" lon="-0.96653">
        <ele>-6.54</ele>
        <time>2015-12-04T13:11:01Z</time>
      </trkpt>
      <trkpt lat="44.61325" lon="-0.9668">
        <ele>-6.9</ele>
        <time>2015-12-04T13:11:08Z</time>
      </trkpt>
      <trkpt lat="44.61339" lon="-0.96693">
        <ele>-6.85</ele>
        <time>2015-12-04T13:11:13Z</time>
      </trkpt>
      <trkpt lat="44.61355" lon="-0.96719">
        <ele>-6.31</ele>
        <time>2015-12-04T13:11:18Z</time>
      </trkpt>
      <trkpt lat="44.61365" lon="-0.96738">
        <ele>-6.43</ele>
        <time>2015-12-04T13:11:21Z</time>
      </trkpt>
      <trkpt lat="44.61372" lon="-0.96749">
        <ele>-6.31</ele>
        <time>2015-12-04T13:11:23Z</time>
      </trkpt>
      <trkpt lat="44.61385" lon="-0.96771">
        <ele>-5.88</ele>
        <time>2015-12-04T13:11:27Z</time>
      </trkpt>
      <trkpt lat="44.61419" lon="-0.9682">
        <ele>-6.43</ele>
        <time>2015-12-04T13:11:35Z</time>
      </trkpt>
      <trkpt lat="44.61444" lon="-0.96866">
        <ele>-6.68</ele>
        <time>2015-12-04T13:11:42Z</time>
      </trkpt>
      <trkpt lat="44.61461" lon="-0.96907">
        <ele>-6.12</ele>
        <time>2015-12-04T13:11:48Z</time>
      </trkpt>
      <trkpt lat="44.6147" lon="-0.96927">
        <ele>-6.45</ele>
        <time>2015-12-04T13:11:51Z</time>
      </trkpt>
      <trkpt lat="44.6148" lon="-0.96946">
        <ele>-6.53</ele>
        <time>2015-12-04T13:11:54Z</time>
      </trkpt>
      <trkpt lat="44.6149" lon="-0.96966">
        <ele>-6.71</ele>
        <time>2015-12-04T13:11:57Z</time>
      </trkpt>
      <trkpt lat="44.615" lon="-0.96994">
        <ele>-6.31</ele>
        <time>2015-12-04T13:12:01Z</time>
      </trkpt>
      <trkpt lat="44.61505" lon="-0.97008">
        <ele>-6.28</ele>
        <time>2015-12-04T13:12:03Z</time>
      </trkpt>
      <trkpt lat="44.61522" lon="-0.97043">
        <ele>-6.21</ele>
        <time>2015-12-04T13:12:08Z</time>
      </trkpt>
      <trkpt lat="44.61556" lon="-0.97092">
        <ele>-6.57</ele>
        <time>2015-12-04T13:12:19Z</time>
      </trkpt>
      <trkpt lat="44.61574" lon="-0.97139">
        <ele>-6.74</ele>
        <time>2015-12-04T13:12:30Z</time>
      </trkpt>
      <trkpt lat="44.61576" lon="-0.97144">
        <ele>-6.77</ele>
        <time>2015-12-04T13:12:31Z</time>
      </trkpt>
      <trkpt lat="44.6159" lon="-0.97167">
        <ele>-6.75</ele>
        <time>2015-12-04T13:12:35Z</time>
      </trkpt>
      <trkpt lat="44.61602" lon="-0.97185">
        <ele>-6.51</ele>
        <time>2015-12-04T13:12:38Z</time>
      </trkpt>
      <trkpt lat="44.61616" lon="-0.97204">
        <ele>-6.31</ele>
        <time>2015-12-04T13:12:41Z</time>
      </trkpt>
      <trkpt lat="44.6164" lon="-0.97254">
        <ele>-6.14</ele>
        <time>2015-12-04T13:12:48Z</time>
      </trkpt>
      <trkpt lat="44.6165" lon="-0.97298">
        <ele>-6.41</ele>
        <time>2015-12-04T13:12:54Z</time>
      </trkpt>
      <trkpt lat="44.61668" lon="-0.9733">
        <ele>-6.12</ele>
        <time>2015-12-04T13:13:01Z</time>
      </trkpt>
      <trkpt lat="44.61677" lon="-0.97385">
        <ele>-6.62</ele>
        <time>2015-12-04T13:13:11Z</time>
      </trkpt>
      <trkpt lat="44.61682" lon="-0.97415">
        <ele>-6.74</ele>
        <time>2015-12-04T13:13:16Z</time>
      </trkpt>
      <trkpt lat="44.61687" lon="-0.97443">
        <ele>-7.38</ele>
        <time>2015-12-04T13:13:21Z</time>
      </trkpt>
      <trkpt lat="44.61666" lon="-0.97533">
        <ele>-7.22</ele>
        <time>2015-12-04T13:13:33Z</time>
      </trkpt>
      <trkpt lat="44.61659" lon="-0.97555">
        <ele>-7.02</ele>
        <time>2015-12-04T13:13:36Z</time>
      </trkpt>
      <trkpt lat="44.61624" lon="-0.97566">
        <ele>-6.81</ele>
        <time>2015-12-04T13:13:43Z</time>
      </trkpt>
      <trkpt lat="44.61613" lon="-0.9756">
        <ele>-6.92</ele>
        <time>2015-12-04T13:13:45Z</time>
      </trkpt>
      <trkpt lat="44.61589" lon="-0.97562">
        <ele>-6.68</ele>
        <time>2015-12-04T13:13:49Z</time>
      </trkpt>
      <trkpt lat="44.61571" lon="-0.97569">
        <ele>-6.58</ele>
        <time>2015-12-04T13:13:52Z</time>
      </trkpt>
      <trkpt lat="44.61549" lon="-0.97586">
        <ele>-7.18</ele>
        <time>2015-12-04T13:13:56Z</time>
      </trkpt>
      <trkpt lat="44.61534" lon="-0.97609">
        <ele>-6.89</ele>
        <time>2015-12-04T13:14:00Z</time>
      </trkpt>
      <trkpt lat="44.61535" lon="-0.9764">
        <ele>-5.78</ele>
        <time>2015-12-04T13:14:07Z</time>
      </trkpt>
      <trkpt lat="44.6155" lon="-0.97671">
        <ele>-5.73</ele>
        <time>2015-12-04T13:14:15Z</time>
      </trkpt>
      <trkpt lat="44.61552" lon="-0.97675">
        <ele>-6.04</ele>
        <time>2015-12-04T13:14:18Z</time>
      </trkpt>
      <trkpt lat="44.61554" lon="-0.97687">
        <ele>-5.52</ele>
        <time>2015-12-04T13:14:26Z</time>
      </trkpt>
      <trkpt lat="44.61564" lon="-0.9771">
        <ele>-5.63</ele>
        <time>2015-12-04T13:14:35Z</time>
      </trkpt>
      <trkpt lat="44.61568" lon="-0.97723">
        <ele>-5.76</ele>
        <time>2015-12-04T13:14:38Z</time>
      </trkpt>
      <trkpt lat="44.6157" lon="-0.97744">
        <ele>-6.28</ele>
        <time>2015-12-04T13:14:43Z</time>
      </trkpt>
      <trkpt lat="44.61578" lon="-0.97769">
        <ele>-6.02</ele>
        <time>2015-12-04T13:14:49Z</time>
      </trkpt>
      <trkpt lat="44.61578" lon="-0.97797">
        <ele>-4.13</ele>
        <time>2015-12-04T13:14:59Z</time>
      </trkpt>
      <trkpt lat="44.61575" lon="-0.97798">
        <ele>-3.93</ele>
        <time>2015-12-04T13:15:01Z</time>
      </trkpt>
      <trkpt lat="44.61544" lon="-0.978">
        <ele>-5.36</ele>
        <time>2015-12-04T13:15:13Z</time>
      </trkpt>
      <trkpt lat="44.61534" lon="-0.97802">
        <ele>-5.74</ele>
        <time>2015-12-04T13:15:16Z</time>
      </trkpt>
      <trkpt lat="44.61521" lon="-0.97818">
        <ele>-5.34</ele>
        <time>2015-12-04T13:15:26Z</time>
      </trkpt>
      <trkpt lat="44.61518" lon="-0.97826">
        <ele>-5.3</ele>
        <time>2015-12-04T13:15:29Z</time>
      </trkpt>
      <trkpt lat="44.61516" lon="-0.9783">
        <ele>-5.34</ele>
        <time>2015-12-04T13:15:31Z</time>
      </trkpt>
      <trkpt lat="44.61513" lon="-0.9785">
        <ele>-5.78</ele>
        <time>2015-12-04T13:15:37Z</time>
      </trkpt>
      <trkpt lat="44.61511" lon="-0.97853">
        <ele>-5.82</ele>
        <time>2015-12-04T13:15:39Z</time>
      </trkpt>
      <trkpt lat="44.61495" lon="-0.97848">
        <ele>-5.48</ele>
        <time>2015-12-04T13:15:48Z</time>
      </trkpt>
      <trkpt lat="44.61487" lon="-0.97846">
        <ele>-5.39</ele>
        <time>2015-12-04T13:15:53Z</time>
      </trkpt>
      <trkpt lat="44.61474" lon="-0.9786">
        <ele>-6.25</ele>
        <time>2015-12-04T13:16:02Z</time>
      </trkpt>
      <trkpt lat="44.61466" lon="-0.9786">
        <ele>-5.04</ele>
        <time>2015-12-04T13:16:21Z</time>
      </trkpt>
      <trkpt lat="44.61464" lon="-0.97858">
        <ele>-4.98</ele>
        <time>2015-12-04T13:16:23Z</time>
      </trkpt>
      <trkpt lat="44.6143" lon="-0.97839">
        <ele>-3.31</ele>
        <time>2015-12-04T13:16:35Z</time>
      </trkpt>
      <trkpt lat="44.61371" lon="-0.97822">
        <ele>-2.93</ele>
        <time>2015-12-04T13:16:49Z</time>
      </trkpt>
      <trkpt lat="44.61331" lon="-0.97812">
        <ele>-3.13</ele>
        <time>2015-12-04T13:16:59Z</time>
      </trkpt>
      <trkpt lat="44.61315" lon="-0.97808">
        <ele>-3.2</ele>
        <time>2015-12-04T13:17:03Z</time>
      </trkpt>
      <trkpt lat="44.61308" lon="-0.97824">
        <ele>-3.29</ele>
        <time>2015-12-04T13:17:08Z</time>
      </trkpt>
      <trkpt lat="44.61295" lon="-0.97861">
        <ele>-3.36</ele>
        <time>2015-12-04T13:17:16Z</time>
      </trkpt>
      <trkpt lat="44.61261" lon="-0.979">
        <ele>-3.18</ele>
        <time>2015-12-04T13:17:25Z</time>
      </trkpt>
      <trkpt lat="44.61198" lon="-0.97923">
        <ele>-2.74</ele>
        <time>2015-12-04T13:17:38Z</time>
      </trkpt>
      <trkpt lat="44.61155" lon="-0.97936">
        <ele>-2.94</ele>
        <time>2015-12-04T13:17:47Z</time>
      </trkpt>
      <trkpt lat="44.61142" lon="-0.97937">
        <ele>-2.91</ele>
        <time>2015-12-04T13:17:50Z</time>
      </trkpt>
      <trkpt lat="44.61113" lon="-0.97931">
        <ele>-2.3</ele>
        <time>2015-12-04T13:17:57Z</time>
      </trkpt>
      <trkpt lat="44.61098" lon="-0.97941">
        <ele>-2.31</ele>
        <time>2015-12-04T13:18:01Z</time>
      </trkpt>
      <trkpt lat="44.61081" lon="-0.97965">
        <ele>-2.29</ele>
        <time>2015-12-04T13:18:06Z</time>
      </trkpt>
      <trkpt lat="44.61043" lon="-0.98007">
        <ele>-2.41</ele>
        <time>2015-12-04T13:18:18Z</time>
      </trkpt>
      <trkpt lat="44.61022" lon="-0.98024">
        <ele>-2.71</ele>
        <time>2015-12-04T13:18:23Z</time>
      </trkpt>
      <trkpt lat="44.61001" lon="-0.98037">
        <ele>-3.09</ele>
        <time>2015-12-04T13:18:27Z</time>
      </trkpt>
      <trkpt lat="44.60924" lon="-0.98066">
        <ele>-2.08</ele>
        <time>2015-12-04T13:18:40Z</time>
      </trkpt>
      <trkpt lat="44.60912" lon="-0.98068">
        <ele>-2.03</ele>
        <time>2015-12-04T13:18:42Z</time>
      </trkpt>
      <trkpt lat="44.60894" lon="-0.98073">
        <ele>-2.28</ele>
        <time>2015-12-04T13:18:45Z</time>
      </trkpt>
      <trkpt lat="44.60838" lon="-0.98123">
        <ele>-1.31</ele>
        <time>2015-12-04T13:18:56Z</time>
      </trkpt>
      <trkpt lat="44.60816" lon="-0.9813">
        <ele>-1.54</ele>
        <time>2015-12-04T13:19:00Z</time>
      </trkpt>
      <trkpt lat="44.60797" lon="-0.98133">
        <ele>-1.05</ele>
        <time>2015-12-04T13:19:04Z</time>
      </trkpt>
      <trkpt lat="44.60754" lon="-0.98089">
        <ele>-0.67</ele>
        <time>2015-12-04T13:19:15Z</time>
      </trkpt>
      <trkpt lat="44.60739" lon="-0.98076">
        <ele>-0.59</ele>
        <time>2015-12-04T13:19:18Z</time>
      </trkpt>
      <trkpt lat="44.60714" lon="-0.98044">
        <ele>-0.69</ele>
        <time>2015-12-04T13:19:24Z</time>
      </trkpt>
      <trkpt lat="44.60686" lon="-0.98004">
        <ele>-0.49</ele>
        <time>2015-12-04T13:19:31Z</time>
      </trkpt>
      <trkpt lat="44.60678" lon="-0.97989">
        <ele>-1.01</ele>
        <time>2015-12-04T13:19:34Z</time>
      </trkpt>
      <trkpt lat="44.60667" lon="-0.97972">
        <ele>-0.96</ele>
        <time>2015-12-04T13:19:38Z</time>
      </trkpt>
      <trkpt lat="44.60657" lon="-0.9794">
        <ele>-1.02</ele>
        <time>2015-12-04T13:19:50Z</time>
      </trkpt>
      <trkpt lat="44.60656" lon="-0.97939">
        <ele>-1.18</ele>
        <time>2015-12-04T13:19:55Z</time>
      </trkpt>
      <trkpt lat="44.60652" lon="-0.97931">
        <ele>-1.11</ele>
        <time>2015-12-04T13:19:59Z</time>
      </trkpt>
      <trkpt lat="44.60666" lon="-0.97895">
        <ele>-1.73</ele>
        <time>2015-12-04T13:20:08Z</time>
      </trkpt>
      <trkpt lat="44.60656" lon="-0.97863">
        <ele>-1.74</ele>
        <time>2015-12-04T13:20:17Z</time>
      </trkpt>
      <trkpt lat="44.60649" lon="-0.97861">
        <ele>-1.48</ele>
        <time>2015-12-04T13:20:19Z</time>
      </trkpt>
      <trkpt lat="44.60626" lon="-0.97828">
        <ele>-0.68</ele>
        <time>2015-12-04T13:20:27Z</time>
      </trkpt>
      <trkpt lat="44.6062" lon="-0.97819">
        <ele>-0.37</ele>
        <time>2015-12-04T13:20:29Z</time>
      </trkpt>
      <trkpt lat="44.6057" lon="-0.97752">
        <ele>-0.56</ele>
        <time>2015-12-04T13:20:43Z</time>
      </trkpt>
      <trkpt lat="44.60565" lon="-0.97739">
        <ele>-0.37</ele>
        <time>2015-12-04T13:20:46Z</time>
      </trkpt>
      <trkpt lat="44.60577" lon="-0.9772">
        <ele>-0.24</ele>
        <time>2015-12-04T13:20:51Z</time>
      </trkpt>
      <trkpt lat="44.60597" lon="-0.97703">
        <ele>-0.41</ele>
        <time>2015-12-04T13:20:56Z</time>
      </trkpt>
      <trkpt lat="44.60666" lon="-0.97653">
        <ele>-1.04</ele>
        <time>2015-12-04T13:21:10Z</time>
      </trkpt>
      <trkpt lat="44.60704" lon="-0.97626">
        <ele>-1.61</ele>
        <time>2015-12-04T13:21:17Z</time>
      </trkpt>
      <trkpt lat="44.6071" lon="-0.97579">
        <ele>-1.31</ele>
        <time>2015-12-04T13:21:25Z</time>
      </trkpt>
      <trkpt lat="44.60707" lon="-0.97573">
        <ele>-1.47</ele>
        <time>2015-12-04T13:21:26Z</time>
      </trkpt>
      <trkpt lat="44.607" lon="-0.97551">
        <ele>-1.45</ele>
        <time>2015-12-04T13:21:31Z</time>
      </trkpt>
      <trkpt lat="44.60709" lon="-0.97574">
        <ele>-1.59</ele>
        <time>2015-12-04T13:21:38Z</time>
      </trkpt>
      <trkpt lat="44.60711" lon="-0.97579">
        <ele>-1.6</ele>
        <time>2015-12-04T13:21:39Z</time>
      </trkpt>
      <trkpt lat="44.60716" lon="-0.97589">
        <ele>-1.43</ele>
        <time>2015-12-04T13:21:41Z</time>
      </trkpt>
      <trkpt lat="44.60736" lon="-0.97606">
        <ele>-1.46</ele>
        <time>2015-12-04T13:21:47Z</time>
      </trkpt>
      <trkpt lat="44.60749" lon="-0.97598">
        <ele>-1.45</ele>
        <time>2015-12-04T13:21:50Z</time>
      </trkpt>
      <trkpt lat="44.60803" lon="-0.97559">
        <ele>-1.74</ele>
        <time>2015-12-04T13:22:00Z</time>
      </trkpt>
      <trkpt lat="44.60894" lon="-0.97498">
        <ele>-2.64</ele>
        <time>2015-12-04T13:22:15Z</time>
      </trkpt>
      <trkpt lat="44.60908" lon="-0.97513">
        <ele>-2.9</ele>
        <time>2015-12-04T13:22:22Z</time>
      </trkpt>
      <trkpt lat="44.60908" lon="-0.97573">
        <ele>-2.72</ele>
        <time>2015-12-04T13:22:35Z</time>
      </trkpt>
      <trkpt lat="44.60923" lon="-0.97609">
        <ele>-2.34</ele>
        <time>2015-12-04T13:22:46Z</time>
      </trkpt>
      <trkpt lat="44.60933" lon="-0.97618">
        <ele>-2.16</ele>
        <time>2015-12-04T13:22:49Z</time>
      </trkpt>
      <trkpt lat="44.60954" lon="-0.97638">
        <ele>-2.36</ele>
        <time>2015-12-04T13:22:56Z</time>
      </trkpt>
      <trkpt lat="44.61007" lon="-0.97612">
        <ele>-3</ele>
        <time>2015-12-04T13:23:11Z</time>
      </trkpt>
      <trkpt lat="44.61009" lon="-0.97614">
        <ele>-2.77</ele>
        <time>2015-12-04T13:23:13Z</time>
      </trkpt>
      <trkpt lat="44.61008" lon="-0.97616">
        <ele>-2.68</ele>
        <time>2015-12-04T13:23:32Z</time>
      </trkpt>
      <trkpt lat="44.61007" lon="-0.97616">
        <ele>-2.67</ele>
        <time>2015-12-04T13:23:38Z</time>
      </trkpt>
      <trkpt lat="44.61" lon="-0.9762">
        <ele>-2.54</ele>
        <time>2015-12-04T13:23:42Z</time>
      </trkpt>
      <trkpt lat="44.60962" lon="-0.97645">
        <ele>-2.38</ele>
        <time>2015-12-04T13:23:54Z</time>
      </trkpt>
      <trkpt lat="44.60952" lon="-0.97649">
        <ele>-2.58</ele>
        <time>2015-12-04T13:23:57Z</time>
      </trkpt>
      <trkpt lat="44.60916" lon="-0.97609">
        <ele>-2.06</ele>
        <time>2015-12-04T13:24:08Z</time>
      </trkpt>
      <trkpt lat="44.60915" lon="-0.97573">
        <ele>-2.41</ele>
        <time>2015-12-04T13:24:16Z</time>
      </trkpt>
      <trkpt lat="44.60913" lon="-0.97511">
        <ele>-3.88</ele>
        <time>2015-12-04T13:24:29Z</time>
      </trkpt>
      <trkpt lat="44.60911" lon="-0.97503">
        <ele>-3.76</ele>
        <time>2015-12-04T13:24:31Z</time>
      </trkpt>
      <trkpt lat="44.60896" lon="-0.97501">
        <ele>-3.19</ele>
        <time>2015-12-04T13:24:36Z</time>
      </trkpt>
      <trkpt lat="44.60827" lon="-0.9754">
        <ele>-2.19</ele>
        <time>2015-12-04T13:24:50Z</time>
      </trkpt>
      <trkpt lat="44.60814" lon="-0.97547">
        <ele>-2.15</ele>
        <time>2015-12-04T13:24:52Z</time>
      </trkpt>
      <trkpt lat="44.6079" lon="-0.97564">
        <ele>-2.8</ele>
        <time>2015-12-04T13:24:56Z</time>
      </trkpt>
      <trkpt lat="44.60777" lon="-0.97571">
        <ele>-2.21</ele>
        <time>2015-12-04T13:24:58Z</time>
      </trkpt>
      <trkpt lat="44.60739" lon="-0.97595">
        <ele>-1.98</ele>
        <time>2015-12-04T13:25:04Z</time>
      </trkpt>
      <trkpt lat="44.60654" lon="-0.97651">
        <ele>-1.5</ele>
        <time>2015-12-04T13:25:18Z</time>
      </trkpt>
      <trkpt lat="44.606" lon="-0.9769">
        <ele>-1.6</ele>
        <time>2015-12-04T13:25:27Z</time>
      </trkpt>
      <trkpt lat="44.60567" lon="-0.97718">
        <ele>-1.26</ele>
        <time>2015-12-04T13:25:33Z</time>
      </trkpt>
      <trkpt lat="44.60567" lon="-0.97749">
        <ele>-1.19</ele>
        <time>2015-12-04T13:25:40Z</time>
      </trkpt>
      <trkpt lat="44.60619" lon="-0.97821">
        <ele>-1.37</ele>
        <time>2015-12-04T13:25:53Z</time>
      </trkpt>
      <trkpt lat="44.60622" lon="-0.97827">
        <ele>-1.79</ele>
        <time>2015-12-04T13:25:54Z</time>
      </trkpt>
      <trkpt lat="44.60641" lon="-0.97857">
        <ele>-1.77</ele>
        <time>2015-12-04T13:26:01Z</time>
      </trkpt>
      <trkpt lat="44.60649" lon="-0.97859">
        <ele>-2.23</ele>
        <time>2015-12-04T13:26:03Z</time>
      </trkpt>
      <trkpt lat="44.60652" lon="-0.97902">
        <ele>-2.32</ele>
        <time>2015-12-04T13:26:13Z</time>
      </trkpt>
      <trkpt lat="44.60644" lon="-0.97914">
        <ele>-1.74</ele>
        <time>2015-12-04T13:26:17Z</time>
      </trkpt>
      <trkpt lat="44.60649" lon="-0.97927">
        <ele>-1.76</ele>
        <time>2015-12-04T13:26:21Z</time>
      </trkpt>
      <trkpt lat="44.60664" lon="-0.97963">
        <ele>-1.32</ele>
        <time>2015-12-04T13:26:33Z</time>
      </trkpt>
      <trkpt lat="44.60672" lon="-0.97976">
        <ele>-2.24</ele>
        <time>2015-12-04T13:26:36Z</time>
      </trkpt>
      <trkpt lat="44.60686" lon="-0.98002">
        <ele>-0.98</ele>
        <time>2015-12-04T13:26:41Z</time>
      </trkpt>
      <trkpt lat="44.60695" lon="-0.98017">
        <ele>-1.55</ele>
        <time>2015-12-04T13:26:44Z</time>
      </trkpt>
      <trkpt lat="44.6073" lon="-0.9807">
        <ele>-0.8</ele>
        <time>2015-12-04T13:26:53Z</time>
      </trkpt>
      <trkpt lat="44.60784" lon="-0.98128">
        <ele>-1.26</ele>
        <time>2015-12-04T13:27:06Z</time>
      </trkpt>
      <trkpt lat="44.60803" lon="-0.98153">
        <ele>-1.5</ele>
        <time>2015-12-04T13:27:16Z</time>
      </trkpt>
      <trkpt lat="44.60803" lon="-0.98181">
        <ele>-1.2</ele>
        <time>2015-12-04T13:27:22Z</time>
      </trkpt>
      <trkpt lat="44.60794" lon="-0.98204">
        <ele>-1.31</ele>
        <time>2015-12-04T13:27:26Z</time>
      </trkpt>
      <trkpt lat="44.60759" lon="-0.98279">
        <ele>-0.76</ele>
        <time>2015-12-04T13:27:37Z</time>
      </trkpt>
      <trkpt lat="44.60751" lon="-0.98307">
        <ele>-0.89</ele>
        <time>2015-12-04T13:27:41Z</time>
      </trkpt>
      <trkpt lat="44.6074" lon="-0.98346">
        <ele>-1.36</ele>
        <time>2015-12-04T13:27:46Z</time>
      </trkpt>
      <trkpt lat="44.60744" lon="-0.98397">
        <ele>-1.4</ele>
        <time>2015-12-04T13:27:53Z</time>
      </trkpt>
      <trkpt lat="44.60746" lon="-0.98428">
        <ele>-1.12</ele>
        <time>2015-12-04T13:27:57Z</time>
      </trkpt>
      <trkpt lat="44.60753" lon="-0.98464">
        <ele>-0.98</ele>
        <time>2015-12-04T13:28:01Z</time>
      </trkpt>
      <trkpt lat="44.6075" lon="-0.98582">
        <ele>-0.79</ele>
        <time>2015-12-04T13:28:14Z</time>
      </trkpt>
      <trkpt lat="44.60747" lon="-0.98646">
        <ele>-1.14</ele>
        <time>2015-12-04T13:28:21Z</time>
      </trkpt>
      <trkpt lat="44.60761" lon="-0.98753">
        <ele>0.12</ele>
        <time>2015-12-04T13:28:33Z</time>
      </trkpt>
      <trkpt lat="44.60771" lon="-0.9879">
        <ele>-0.02</ele>
        <time>2015-12-04T13:28:37Z</time>
      </trkpt>
      <trkpt lat="44.60791" lon="-0.98805">
        <ele>-0.62</ele>
        <time>2015-12-04T13:28:41Z</time>
      </trkpt>
      <trkpt lat="44.60812" lon="-0.98804">
        <ele>-0.82</ele>
        <time>2015-12-04T13:28:45Z</time>
      </trkpt>
      <trkpt lat="44.60838" lon="-0.98823">
        <ele>-1.13</ele>
        <time>2015-12-04T13:28:52Z</time>
      </trkpt>
      <trkpt lat="44.6087" lon="-0.98818">
        <ele>-0.87</ele>
        <time>2015-12-04T13:28:59Z</time>
      </trkpt>
      <trkpt lat="44.60957" lon="-0.98823">
        <ele>-0.91</ele>
        <time>2015-12-04T13:29:13Z</time>
      </trkpt>
      <trkpt lat="44.61051" lon="-0.98818">
        <ele>-1.23</ele>
        <time>2015-12-04T13:29:28Z</time>
      </trkpt>
      <trkpt lat="44.61142" lon="-0.98808">
        <ele>-1.68</ele>
        <time>2015-12-04T13:29:43Z</time>
      </trkpt>
      <trkpt lat="44.61159" lon="-0.98807">
        <ele>-1.85</ele>
        <time>2015-12-04T13:29:46Z</time>
      </trkpt>
      <trkpt lat="44.61196" lon="-0.98781">
        <ele>-1.51</ele>
        <time>2015-12-04T13:29:55Z</time>
      </trkpt>
      <trkpt lat="44.61225" lon="-0.98753">
        <ele>-2.5</ele>
        <time>2015-12-04T13:30:05Z</time>
      </trkpt>
      <trkpt lat="44.61261" lon="-0.98757">
        <ele>-2.03</ele>
        <time>2015-12-04T13:30:17Z</time>
      </trkpt>
      <trkpt lat="44.61288" lon="-0.98754">
        <ele>-1.98</ele>
        <time>2015-12-04T13:30:24Z</time>
      </trkpt>
      <trkpt lat="44.61323" lon="-0.98732">
        <ele>-1.54</ele>
        <time>2015-12-04T13:30:32Z</time>
      </trkpt>
      <trkpt lat="44.61364" lon="-0.98712">
        <ele>-2.6</ele>
        <time>2015-12-04T13:30:43Z</time>
      </trkpt>
      <trkpt lat="44.61369" lon="-0.98709">
        <ele>-2.77</ele>
        <time>2015-12-04T13:30:52Z</time>
      </trkpt>
      <trkpt lat="44.61351" lon="-0.98714">
        <ele>-2.73</ele>
        <time>2015-12-04T13:30:59Z</time>
      </trkpt>
      <trkpt lat="44.61336" lon="-0.98719">
        <ele>-2.02</ele>
        <time>2015-12-04T13:31:02Z</time>
      </trkpt>
      <trkpt lat="44.61317" lon="-0.98727">
        <ele>-1.81</ele>
        <time>2015-12-04T13:31:06Z</time>
      </trkpt>
      <trkpt lat="44.61298" lon="-0.98739">
        <ele>-2.67</ele>
        <time>2015-12-04T13:31:10Z</time>
      </trkpt>
      <trkpt lat="44.61284" lon="-0.98744">
        <ele>-1.43</ele>
        <time>2015-12-04T13:31:13Z</time>
      </trkpt>
      <trkpt lat="44.61279" lon="-0.98744">
        <ele>-1.43</ele>
        <time>2015-12-04T13:31:14Z</time>
      </trkpt>
      <trkpt lat="44.61237" lon="-0.98742">
        <ele>-2.32</ele>
        <time>2015-12-04T13:31:22Z</time>
      </trkpt>
      <trkpt lat="44.61209" lon="-0.98758">
        <ele>-1.94</ele>
        <time>2015-12-04T13:31:28Z</time>
      </trkpt>
      <trkpt lat="44.61194" lon="-0.98771">
        <ele>-2.71</ele>
        <time>2015-12-04T13:31:39Z</time>
      </trkpt>
      <trkpt lat="44.61173" lon="-0.98788">
        <ele>-1.97</ele>
        <time>2015-12-04T13:31:44Z</time>
      </trkpt>
      <trkpt lat="44.61151" lon="-0.98796">
        <ele>-1.9</ele>
        <time>2015-12-04T13:31:48Z</time>
      </trkpt>
      <trkpt lat="44.61142" lon="-0.98815">
        <ele>-2.16</ele>
        <time>2015-12-04T13:31:55Z</time>
      </trkpt>
      <trkpt lat="44.61204" lon="-0.98857">
        <ele>-1.5</ele>
        <time>2015-12-04T13:32:07Z</time>
      </trkpt>
      <trkpt lat="44.61239" lon="-0.9888">
        <ele>-2.58</ele>
        <time>2015-12-04T13:32:13Z</time>
      </trkpt>
      <trkpt lat="44.61255" lon="-0.98894">
        <ele>-2.05</ele>
        <time>2015-12-04T13:32:21Z</time>
      </trkpt>
      <trkpt lat="44.61259" lon="-0.98899">
        <ele>-2.07</ele>
        <time>2015-12-04T13:32:27Z</time>
      </trkpt>
      <trkpt lat="44.61266" lon="-0.98907">
        <ele>-1.95</ele>
        <time>2015-12-04T13:32:32Z</time>
      </trkpt>
      <trkpt lat="44.61284" lon="-0.98956">
        <ele>-1.64</ele>
        <time>2015-12-04T13:32:43Z</time>
      </trkpt>
      <trkpt lat="44.61286" lon="-0.98962">
        <ele>-1.65</ele>
        <time>2015-12-04T13:32:44Z</time>
      </trkpt>
      <trkpt lat="44.61293" lon="-0.98992">
        <ele>-2.65</ele>
        <time>2015-12-04T13:32:48Z</time>
      </trkpt>
      <trkpt lat="44.613" lon="-0.9902">
        <ele>-2.11</ele>
        <time>2015-12-04T13:32:52Z</time>
      </trkpt>
      <trkpt lat="44.61304" lon="-0.99041">
        <ele>-1.46</ele>
        <time>2015-12-04T13:32:55Z</time>
      </trkpt>
      <trkpt lat="44.61314" lon="-0.99092">
        <ele>-1.86</ele>
        <time>2015-12-04T13:33:04Z</time>
      </trkpt>
      <trkpt lat="44.61302" lon="-0.99106">
        <ele>-0.01</ele>
        <time>2015-12-04T13:33:11Z</time>
      </trkpt>
      <trkpt lat="44.61296" lon="-0.99106">
        <ele>0.81</ele>
        <time>2015-12-04T13:33:15Z</time>
      </trkpt>
      <trkpt lat="44.61276" lon="-0.99124">
        <ele>1.4</ele>
        <time>2015-12-04T13:33:26Z</time>
      </trkpt>
      <trkpt lat="44.61274" lon="-0.99162">
        <ele>-1.23</ele>
        <time>2015-12-04T13:33:39Z</time>
      </trkpt>
      <trkpt lat="44.6127" lon="-0.99171">
        <ele>-1.81</ele>
        <time>2015-12-04T13:33:43Z</time>
      </trkpt>
      <trkpt lat="44.61264" lon="-0.99183">
        <ele>-2.53</ele>
        <time>2015-12-04T13:33:49Z</time>
      </trkpt>
      <trkpt lat="44.61251" lon="-0.99192">
        <ele>-2.96</ele>
        <time>2015-12-04T13:33:59Z</time>
      </trkpt>
      <trkpt lat="44.61229" lon="-0.9919">
        <ele>-3.05</ele>
        <time>2015-12-04T13:34:12Z</time>
      </trkpt>
      <trkpt lat="44.61221" lon="-0.9919">
        <ele>-3.14</ele>
        <time>2015-12-04T13:34:21Z</time>
      </trkpt>
      <trkpt lat="44.61235" lon="-0.99193">
        <ele>-2.86</ele>
        <time>2015-12-04T13:34:28Z</time>
      </trkpt>
      <trkpt lat="44.61253" lon="-0.99197">
        <ele>-3.06</ele>
        <time>2015-12-04T13:34:35Z</time>
      </trkpt>
      <trkpt lat="44.61257" lon="-0.99203">
        <ele>-3.28</ele>
        <time>2015-12-04T13:34:39Z</time>
      </trkpt>
      <trkpt lat="44.61263" lon="-0.99197">
        <ele>-2.42</ele>
        <time>2015-12-04T13:34:44Z</time>
      </trkpt>
      <trkpt lat="44.61266" lon="-0.99198">
        <ele>-2.03</ele>
        <time>2015-12-04T13:34:46Z</time>
      </trkpt>
      <trkpt lat="44.61279" lon="-0.99222">
        <ele>-1.85</ele>
        <time>2015-12-04T13:34:54Z</time>
      </trkpt>
      <trkpt lat="44.613" lon="-0.99269">
        <ele>-1.15</ele>
        <time>2015-12-04T13:35:05Z</time>
      </trkpt>
      <trkpt lat="44.61305" lon="-0.99314">
        <ele>-2.02</ele>
        <time>2015-12-04T13:35:15Z</time>
      </trkpt>
      <trkpt lat="44.61328" lon="-0.99354">
        <ele>-2.24</ele>
        <time>2015-12-04T13:35:24Z</time>
      </trkpt>
      <trkpt lat="44.61351" lon="-0.99374">
        <ele>-3.05</ele>
        <time>2015-12-04T13:35:30Z</time>
      </trkpt>
      <trkpt lat="44.6136" lon="-0.99373">
        <ele>-2.44</ele>
        <time>2015-12-04T13:35:32Z</time>
      </trkpt>
      <trkpt lat="44.61364" lon="-0.99388">
        <ele>-2.52</ele>
        <time>2015-12-04T13:35:36Z</time>
      </trkpt>
      <trkpt lat="44.61351" lon="-0.99442">
        <ele>-2.26</ele>
        <time>2015-12-04T13:35:44Z</time>
      </trkpt>
      <trkpt lat="44.61329" lon="-0.99578">
        <ele>-1.44</ele>
        <time>2015-12-04T13:36:00Z</time>
      </trkpt>
      <trkpt lat="44.61314" lon="-0.99669">
        <ele>-1.16</ele>
        <time>2015-12-04T13:36:10Z</time>
      </trkpt>
      <trkpt lat="44.61301" lon="-0.99748">
        <ele>-1.35</ele>
        <time>2015-12-04T13:36:20Z</time>
      </trkpt>
      <trkpt lat="44.61281" lon="-0.99782">
        <ele>-1.2</ele>
        <time>2015-12-04T13:36:32Z</time>
      </trkpt>
      <trkpt lat="44.61258" lon="-0.99825">
        <ele>-0.85</ele>
        <time>2015-12-04T13:36:45Z</time>
      </trkpt>
      <trkpt lat="44.61241" lon="-0.99862">
        <ele>-0.67</ele>
        <time>2015-12-04T13:36:57Z</time>
      </trkpt>
      <trkpt lat="44.61239" lon="-0.99917">
        <ele>-1.57</ele>
        <time>2015-12-04T13:37:11Z</time>
      </trkpt>
      <trkpt lat="44.6124" lon="-0.99925">
        <ele>-1.28</ele>
        <time>2015-12-04T13:37:14Z</time>
      </trkpt>
      <trkpt lat="44.61229" lon="-0.99968">
        <ele>-0.69</ele>
        <time>2015-12-04T13:37:26Z</time>
      </trkpt>
      <trkpt lat="44.61229" lon="-0.99998">
        <ele>-1.33</ele>
        <time>2015-12-04T13:37:35Z</time>
      </trkpt>
      <trkpt lat="44.61242" lon="-1.00004">
        <ele>-1.97</ele>
        <time>2015-12-04T13:37:39Z</time>
      </trkpt>
      <trkpt lat="44.61259" lon="-1">
        <ele>-1.57</ele>
        <time>2015-12-04T13:37:45Z</time>
      </trkpt>
      <trkpt lat="44.61268" lon="-0.99952">
        <ele>-0.16</ele>
        <time>2015-12-04T13:37:55Z</time>
      </trkpt>
      <trkpt lat="44.61283" lon="-0.99865">
        <ele>-0.59</ele>
        <time>2015-12-04T13:38:06Z</time>
      </trkpt>
      <trkpt lat="44.61309" lon="-0.99763">
        <ele>-0.29</ele>
        <time>2015-12-04T13:38:17Z</time>
      </trkpt>
      <trkpt lat="44.61312" lon="-0.99743">
        <ele>-0.11</ele>
        <time>2015-12-04T13:38:19Z</time>
      </trkpt>
      <trkpt lat="44.61333" lon="-0.99598">
        <ele>-0.92</ele>
        <time>2015-12-04T13:38:33Z</time>
      </trkpt>
      <trkpt lat="44.6136" lon="-0.99431">
        <ele>-0.96</ele>
        <time>2015-12-04T13:38:49Z</time>
      </trkpt>
      <trkpt lat="44.61385" lon="-0.99326">
        <ele>-1.56</ele>
        <time>2015-12-04T13:39:01Z</time>
      </trkpt>
      <trkpt lat="44.61406" lon="-0.99212">
        <ele>-0.8</ele>
        <time>2015-12-04T13:39:16Z</time>
      </trkpt>
      <trkpt lat="44.61433" lon="-0.99084">
        <ele>-1.24</ele>
        <time>2015-12-04T13:39:31Z</time>
      </trkpt>
      <trkpt lat="44.6146" lon="-0.9895">
        <ele>-1.45</ele>
        <time>2015-12-04T13:39:46Z</time>
      </trkpt>
      <trkpt lat="44.61489" lon="-0.98819">
        <ele>-2.42</ele>
        <time>2015-12-04T13:40:01Z</time>
      </trkpt>
      <trkpt lat="44.61502" lon="-0.98763">
        <ele>-3.05</ele>
        <time>2015-12-04T13:40:07Z</time>
      </trkpt>
      <trkpt lat="44.61535" lon="-0.98623">
        <ele>-2.8</ele>
        <time>2015-12-04T13:40:24Z</time>
      </trkpt>
      <trkpt lat="44.61558" lon="-0.98519">
        <ele>-2.49</ele>
        <time>2015-12-04T13:40:38Z</time>
      </trkpt>
      <trkpt lat="44.61581" lon="-0.98427">
        <ele>-3.24</ele>
        <time>2015-12-04T13:40:50Z</time>
      </trkpt>
      <trkpt lat="44.61591" lon="-0.98375">
        <ele>-2.58</ele>
        <time>2015-12-04T13:40:56Z</time>
      </trkpt>
      <trkpt lat="44.61628" lon="-0.98246">
        <ele>-3.62</ele>
        <time>2015-12-04T13:41:10Z</time>
      </trkpt>
      <trkpt lat="44.6166" lon="-0.98127">
        <ele>-4.37</ele>
        <time>2015-12-04T13:41:24Z</time>
      </trkpt>
      <trkpt lat="44.61697" lon="-0.97987">
        <ele>-5.36</ele>
        <time>2015-12-04T13:41:40Z</time>
      </trkpt>
      <trkpt lat="44.61736" lon="-0.97866">
        <ele>-4.48</ele>
        <time>2015-12-04T13:41:55Z</time>
      </trkpt>
      <trkpt lat="44.61771" lon="-0.9776">
        <ele>-3.97</ele>
        <time>2015-12-04T13:42:09Z</time>
      </trkpt>
      <trkpt lat="44.61775" lon="-0.97745">
        <ele>-3.76</ele>
        <time>2015-12-04T13:42:11Z</time>
      </trkpt>
      <trkpt lat="44.618" lon="-0.97679">
        <ele>-5.85</ele>
        <time>2015-12-04T13:42:20Z</time>
      </trkpt>
      <trkpt lat="44.61807" lon="-0.97669">
        <ele>-5.94</ele>
        <time>2015-12-04T13:42:22Z</time>
      </trkpt>
      <trkpt lat="44.61829" lon="-0.97698">
        <ele>-5.12</ele>
        <time>2015-12-04T13:42:32Z</time>
      </trkpt>
      <trkpt lat="44.61829" lon="-0.97715">
        <ele>-3.36</ele>
        <time>2015-12-04T13:42:40Z</time>
      </trkpt>
      <trkpt lat="44.61829" lon="-0.97711">
        <ele>-1.93</ele>
        <time>2015-12-04T13:42:55Z</time>
      </trkpt>
      <trkpt lat="44.6183" lon="-0.97712">
        <ele>-2.38</ele>
        <time>2015-12-04T13:43:04Z</time>
      </trkpt>
      <trkpt lat="44.61846" lon="-0.97671">
        <ele>-1.9</ele>
        <time>2015-12-04T13:43:13Z</time>
      </trkpt>
      <trkpt lat="44.61857" lon="-0.97645">
        <ele>-3.04</ele>
        <time>2015-12-04T13:43:18Z</time>
      </trkpt>
      <trkpt lat="44.61863" lon="-0.9765">
        <ele>-3.23</ele>
        <time>2015-12-04T13:43:31Z</time>
      </trkpt>
      <trkpt lat="44.61881" lon="-0.97604">
        <ele>-2.94</ele>
        <time>2015-12-04T13:43:41Z</time>
      </trkpt>
      <trkpt lat="44.61918" lon="-0.97496">
        <ele>-2.48</ele>
        <time>2015-12-04T13:43:55Z</time>
      </trkpt>
      <trkpt lat="44.61923" lon="-0.97482">
        <ele>-2.87</ele>
        <time>2015-12-04T13:44:02Z</time>
      </trkpt>
      <trkpt lat="44.61928" lon="-0.97468">
        <ele>-3.19</ele>
        <time>2015-12-04T13:44:14Z</time>
      </trkpt>
      <trkpt lat="44.61959" lon="-0.97382">
        <ele>-2.93</ele>
        <time>2015-12-04T13:44:26Z</time>
      </trkpt>
      <trkpt lat="44.61969" lon="-0.97358">
        <ele>-2.58</ele>
        <time>2015-12-04T13:44:29Z</time>
      </trkpt>
      <trkpt lat="44.61976" lon="-0.97341">
        <ele>-3.07</ele>
        <time>2015-12-04T13:44:31Z</time>
      </trkpt>
      <trkpt lat="44.62009" lon="-0.9725">
        <ele>-3.27</ele>
        <time>2015-12-04T13:44:42Z</time>
      </trkpt>
      <trkpt lat="44.62049" lon="-0.97146">
        <ele>-2.88</ele>
        <time>2015-12-04T13:44:55Z</time>
      </trkpt>
      <trkpt lat="44.62092" lon="-0.97039">
        <ele>-2.83</ele>
        <time>2015-12-04T13:45:08Z</time>
      </trkpt>
      <trkpt lat="44.62114" lon="-0.96982">
        <ele>-2.78</ele>
        <time>2015-12-04T13:45:15Z</time>
      </trkpt>
      <trkpt lat="44.62137" lon="-0.96961">
        <ele>-2.16</ele>
        <time>2015-12-04T13:45:20Z</time>
      </trkpt>
      <trkpt lat="44.62213" lon="-0.96918">
        <ele>-3.77</ele>
        <time>2015-12-04T13:45:34Z</time>
      </trkpt>
      <trkpt lat="44.6223" lon="-0.96945">
        <ele>-2.76</ele>
        <time>2015-12-04T13:45:40Z</time>
      </trkpt>
      <trkpt lat="44.62229" lon="-0.96954">
        <ele>-2.61</ele>
        <time>2015-12-04T13:45:41Z</time>
      </trkpt>
      <trkpt lat="44.62227" lon="-0.96998">
        <ele>-2.36</ele>
        <time>2015-12-04T13:45:46Z</time>
      </trkpt>
      <trkpt lat="44.62238" lon="-0.97084">
        <ele>-3.33</ele>
        <time>2015-12-04T13:45:55Z</time>
      </trkpt>
      <trkpt lat="44.6225" lon="-0.97129">
        <ele>-4.22</ele>
        <time>2015-12-04T13:46:00Z</time>
      </trkpt>
      <trkpt lat="44.62267" lon="-0.97167">
        <ele>-3.89</ele>
        <time>2015-12-04T13:46:05Z</time>
      </trkpt>
      <trkpt lat="44.62293" lon="-0.97203">
        <ele>-3.93</ele>
        <time>2015-12-04T13:46:11Z</time>
      </trkpt>
      <trkpt lat="44.623" lon="-0.97215">
        <ele>-4.01</ele>
        <time>2015-12-04T13:46:13Z</time>
      </trkpt>
      <trkpt lat="44.6232" lon="-0.97215">
        <ele>-4.21</ele>
        <time>2015-12-04T13:46:20Z</time>
      </trkpt>
      <trkpt lat="44.62322" lon="-0.97211">
        <ele>-4.03</ele>
        <time>2015-12-04T13:46:21Z</time>
      </trkpt>
      <trkpt lat="44.62338" lon="-0.97145">
        <ele>-1.31</ele>
        <time>2015-12-04T13:46:34Z</time>
      </trkpt>
      <trkpt lat="44.62346" lon="-0.97119">
        <ele>-1.1</ele>
        <time>2015-12-04T13:46:38Z</time>
      </trkpt>
      <trkpt lat="44.62388" lon="-0.97004">
        <ele>-1.69</ele>
        <time>2015-12-04T13:46:51Z</time>
      </trkpt>
      <trkpt lat="44.62426" lon="-0.96885">
        <ele>-2.77</ele>
        <time>2015-12-04T13:47:04Z</time>
      </trkpt>
      <trkpt lat="44.62435" lon="-0.96861">
        <ele>-2.42</ele>
        <time>2015-12-04T13:47:07Z</time>
      </trkpt>
      <trkpt lat="44.62445" lon="-0.9683">
        <ele>-2.42</ele>
        <time>2015-12-04T13:47:11Z</time>
      </trkpt>
      <trkpt lat="44.62463" lon="-0.96787">
        <ele>-2.17</ele>
        <time>2015-12-04T13:47:18Z</time>
      </trkpt>
      <trkpt lat="44.62501" lon="-0.96684">
        <ele>-1.6</ele>
        <time>2015-12-04T13:47:32Z</time>
      </trkpt>
      <trkpt lat="44.62506" lon="-0.9667">
        <ele>-1.21</ele>
        <time>2015-12-04T13:47:34Z</time>
      </trkpt>
      <trkpt lat="44.62524" lon="-0.96565">
        <ele>-1.45</ele>
        <time>2015-12-04T13:47:47Z</time>
      </trkpt>
      <trkpt lat="44.62544" lon="-0.96486">
        <ele>-1.91</ele>
        <time>2015-12-04T13:47:58Z</time>
      </trkpt>
      <trkpt lat="44.62536" lon="-0.96456">
        <ele>-1.88</ele>
        <time>2015-12-04T13:48:03Z</time>
      </trkpt>
      <trkpt lat="44.62525" lon="-0.96445">
        <ele>-1.71</ele>
        <time>2015-12-04T13:48:05Z</time>
      </trkpt>
      <trkpt lat="44.62448" lon="-0.96354">
        <ele>0.12</ele>
        <time>2015-12-04T13:48:20Z</time>
      </trkpt>
      <trkpt lat="44.62391" lon="-0.96296">
        <ele>3.28</ele>
        <time>2015-12-04T13:48:31Z</time>
      </trkpt>
      <trkpt lat="44.62329" lon="-0.96249">
        <ele>1.65</ele>
        <time>2015-12-04T13:48:43Z</time>
      </trkpt>
      <trkpt lat="44.62311" lon="-0.96234">
        <ele>1.52</ele>
        <time>2015-12-04T13:48:46Z</time>
      </trkpt>
      <trkpt lat="44.62291" lon="-0.96178">
        <ele>-0.81</ele>
        <time>2015-12-04T13:48:53Z</time>
      </trkpt>
      <trkpt lat="44.62281" lon="-0.96165">
        <ele>-1.19</ele>
        <time>2015-12-04T13:48:55Z</time>
      </trkpt>
      <trkpt lat="44.62192" lon="-0.9606">
        <ele>-1.28</ele>
        <time>2015-12-04T13:49:11Z</time>
      </trkpt>
      <trkpt lat="44.62124" lon="-0.95977">
        <ele>-0.82</ele>
        <time>2015-12-04T13:49:24Z</time>
      </trkpt>
      <trkpt lat="44.62114" lon="-0.95966">
        <ele>-1.81</ele>
        <time>2015-12-04T13:49:26Z</time>
      </trkpt>
      <trkpt lat="44.62101" lon="-0.95961">
        <ele>-3.08</ele>
        <time>2015-12-04T13:49:29Z</time>
      </trkpt>
      <trkpt lat="44.62091" lon="-0.95969">
        <ele>-2.76</ele>
        <time>2015-12-04T13:49:32Z</time>
      </trkpt>
      <trkpt lat="44.62065" lon="-0.9599">
        <ele>-1.89</ele>
        <time>2015-12-04T13:49:39Z</time>
      </trkpt>
      <trkpt lat="44.62022" lon="-0.96029">
        <ele>-2.52</ele>
        <time>2015-12-04T13:49:51Z</time>
      </trkpt>
      <trkpt lat="44.62002" lon="-0.96047">
        <ele>-2.46</ele>
        <time>2015-12-04T13:49:57Z</time>
      </trkpt>
      <trkpt lat="44.61987" lon="-0.96063">
        <ele>-2.1</ele>
        <time>2015-12-04T13:50:01Z</time>
      </trkpt>
      <trkpt lat="44.6199" lon="-0.96085">
        <ele>-2.27</ele>
        <time>2015-12-04T13:50:05Z</time>
      </trkpt>
      <trkpt lat="44.61994" lon="-0.96107">
        <ele>-2.56</ele>
        <time>2015-12-04T13:50:09Z</time>
      </trkpt>
      <trkpt lat="44.61986" lon="-0.96132">
        <ele>-2.48</ele>
        <time>2015-12-04T13:50:14Z</time>
      </trkpt>
      <trkpt lat="44.61968" lon="-0.96164">
        <ele>-3.01</ele>
        <time>2015-12-04T13:50:22Z</time>
      </trkpt>
      <trkpt lat="44.61956" lon="-0.96155">
        <ele>-2.75</ele>
        <time>2015-12-04T13:50:28Z</time>
      </trkpt>
      <trkpt lat="44.61924" lon="-0.96054">
        <ele>-2.3</ele>
        <time>2015-12-04T13:50:42Z</time>
      </trkpt>
      <trkpt lat="44.61921" lon="-0.96046">
        <ele>-2.34</ele>
        <time>2015-12-04T13:50:43Z</time>
      </trkpt>
      <trkpt lat="44.61909" lon="-0.96002">
        <ele>-2.34</ele>
        <time>2015-12-04T13:50:48Z</time>
      </trkpt>
      <trkpt lat="44.61897" lon="-0.95978">
        <ele>-2.48</ele>
        <time>2015-12-04T13:50:51Z</time>
      </trkpt>
      <trkpt lat="44.61866" lon="-0.95895">
        <ele>-1.97</ele>
        <time>2015-12-04T13:51:01Z</time>
      </trkpt>
      <trkpt lat="44.61837" lon="-0.95814">
        <ele>-1.79</ele>
        <time>2015-12-04T13:51:11Z</time>
      </trkpt>
      <trkpt lat="44.61831" lon="-0.95798">
        <ele>-1.99</ele>
        <time>2015-12-04T13:51:13Z</time>
      </trkpt>
      <trkpt lat="44.61822" lon="-0.95764">
        <ele>-2</ele>
        <time>2015-12-04T13:51:17Z</time>
      </trkpt>
      <trkpt lat="44.6181" lon="-0.95721">
        <ele>-1.79</ele>
        <time>2015-12-04T13:51:22Z</time>
      </trkpt>
      <trkpt lat="44.61794" lon="-0.95677">
        <ele>-2.16</ele>
        <time>2015-12-04T13:51:28Z</time>
      </trkpt>
      <trkpt lat="44.61788" lon="-0.95663">
        <ele>-2.1</ele>
        <time>2015-12-04T13:51:30Z</time>
      </trkpt>
      <trkpt lat="44.6177" lon="-0.95597">
        <ele>-1.85</ele>
        <time>2015-12-04T13:51:39Z</time>
      </trkpt>
      <trkpt lat="44.61765" lon="-0.95573">
        <ele>-1.72</ele>
        <time>2015-12-04T13:51:43Z</time>
      </trkpt>
      <trkpt lat="44.61743" lon="-0.95541">
        <ele>-0.85</ele>
        <time>2015-12-04T13:51:50Z</time>
      </trkpt>
      <trkpt lat="44.61682" lon="-0.95472">
        <ele>-1.18</ele>
        <time>2015-12-04T13:52:04Z</time>
      </trkpt>
      <trkpt lat="44.61606" lon="-0.95384">
        <ele>-1.02</ele>
        <time>2015-12-04T13:52:19Z</time>
      </trkpt>
      <trkpt lat="44.6157" lon="-0.9534">
        <ele>0.69</ele>
        <time>2015-12-04T13:52:26Z</time>
      </trkpt>
      <trkpt lat="44.61495" lon="-0.95253">
        <ele>-0.68</ele>
        <time>2015-12-04T13:52:40Z</time>
      </trkpt>
      <trkpt lat="44.61423" lon="-0.95172">
        <ele>-0.39</ele>
        <time>2015-12-04T13:52:53Z</time>
      </trkpt>
      <trkpt lat="44.61338" lon="-0.95077">
        <ele>-0.77</ele>
        <time>2015-12-04T13:53:08Z</time>
      </trkpt>
      <trkpt lat="44.61303" lon="-0.95036">
        <ele>1.95</ele>
        <time>2015-12-04T13:53:15Z</time>
      </trkpt>
      <trkpt lat="44.61267" lon="-0.94993">
        <ele>-0.26</ele>
        <time>2015-12-04T13:53:23Z</time>
      </trkpt>
      <trkpt lat="44.61253" lon="-0.94976">
        <ele>-0.53</ele>
        <time>2015-12-04T13:53:26Z</time>
      </trkpt>
      <trkpt lat="44.61244" lon="-0.94966">
        <ele>-0.59</ele>
        <time>2015-12-04T13:53:28Z</time>
      </trkpt>
      <trkpt lat="44.61212" lon="-0.9493">
        <ele>-0.78</ele>
        <time>2015-12-04T13:53:35Z</time>
      </trkpt>
      <trkpt lat="44.6119" lon="-0.94905">
        <ele>-0.82</ele>
        <time>2015-12-04T13:53:40Z</time>
      </trkpt>
      <trkpt lat="44.61185" lon="-0.94845">
        <ele>-0.98</ele>
        <time>2015-12-04T13:53:48Z</time>
      </trkpt>
      <trkpt lat="44.61184" lon="-0.94839">
        <ele>-0.91</ele>
        <time>2015-12-04T13:53:49Z</time>
      </trkpt>
      <trkpt lat="44.61177" lon="-0.94783">
        <ele>-0.95</ele>
        <time>2015-12-04T13:54:00Z</time>
      </trkpt>
      <trkpt lat="44.61202" lon="-0.94749">
        <ele>-0.41</ele>
        <time>2015-12-04T13:54:11Z</time>
      </trkpt>
      <trkpt lat="44.6121" lon="-0.94748">
        <ele>-0.33</ele>
        <time>2015-12-04T13:54:13Z</time>
      </trkpt>
      <trkpt lat="44.61229" lon="-0.94742">
        <ele>-0.47</ele>
        <time>2015-12-04T13:54:18Z</time>
      </trkpt>
      <trkpt lat="44.61256" lon="-0.94712">
        <ele>-0.25</ele>
        <time>2015-12-04T13:54:27Z</time>
      </trkpt>
      <trkpt lat="44.61258" lon="-0.94706">
        <ele>-0.23</ele>
        <time>2015-12-04T13:54:28Z</time>
      </trkpt>
    </trkseg>
  </trk>
</gpx>